<?xml version="1.0" encoding="UTF-8" standalone="yes"?>
<gpx
 xmlns="http://www.topografix.com/GPX/1/1"
 creator="OziExplorer Version 3956f - http://www.oziexplorer.com"
 version="1.1"
 xmlns:xsi="http://www.w3.org/2001/XMLSchema-instance"
 xsi:schemaLocation="http://www.topografix.com/GPX/1/1 http://www.topografix.com/GPX/1/1/gpx.xsd">
<metadata>
 <time>2017-12-20T16:49:21Z</time>
 <bounds minlat="31.141310" minlon="35.194600" maxlat="31.248200" maxlon="35.369930"/>
</metadata>
<trk>
 <name>arad-mm-1</name>
 <desc>arad-mm-1</desc>
<trkseg>
<trkpt lat="31.2482000" lon="35.1983000">
<ele>562.508423</ele>
<time>2009-12-04T06:47:43.002Z</time>
</trkpt>
<trkpt lat="31.2481100" lon="35.1982900">
<ele>560.588135</ele>
<time>2009-12-04T06:52:29.997Z</time>
</trkpt>
<trkpt lat="31.2478300" lon="35.1981600">
<ele>561.075867</ele>
<time>2009-12-04T06:52:44.003Z</time>
</trkpt>
<trkpt lat="31.2477700" lon="35.1980200">
<ele>561.075867</ele>
<time>2009-12-04T06:52:56.004Z</time>
</trkpt>
<trkpt lat="31.2477200" lon="35.1977300">
<ele>559.155579</ele>
<time>2009-12-04T06:53:14.001Z</time>
</trkpt>
<trkpt lat="31.2474700" lon="35.1974900">
<ele>559.155579</ele>
<time>2009-12-04T06:53:23.997Z</time>
</trkpt>
<trkpt lat="31.2468900" lon="35.1975300">
<ele>561.075867</ele>
<time>2009-12-04T06:53:42.003Z</time>
</trkpt>
<trkpt lat="31.2464400" lon="35.1975900">
<ele>562.508423</ele>
<time>2009-12-04T06:53:56.000Z</time>
</trkpt>
<trkpt lat="31.2459700" lon="35.1974600">
<ele>564.428650</ele>
<time>2009-12-04T06:54:13.997Z</time>
</trkpt>
<trkpt lat="31.2455100" lon="35.1973200">
<ele>567.324280</ele>
<time>2009-12-04T06:54:32.003Z</time>
</trkpt>
<trkpt lat="31.2450500" lon="35.1972000">
<ele>570.677063</ele>
<time>2009-12-04T06:54:51.002Z</time>
</trkpt>
<trkpt lat="31.2445000" lon="35.1970300">
<ele>573.084961</ele>
<time>2009-12-04T06:55:14.002Z</time>
</trkpt>
<trkpt lat="31.2439800" lon="35.1968700">
<ele>575.005188</ele>
<time>2009-12-04T06:55:35.999Z</time>
</trkpt>
<trkpt lat="31.2433600" lon="35.1967000">
<ele>576.925476</ele>
<time>2009-12-04T06:55:57.003Z</time>
</trkpt>
<trkpt lat="31.2426300" lon="35.1964800">
<ele>575.980530</ele>
<time>2009-12-04T06:56:17.998Z</time>
</trkpt>
<trkpt lat="31.2418000" lon="35.1962500">
<ele>573.572632</ele>
<time>2009-12-04T06:56:39.002Z</time>
</trkpt>
<trkpt lat="31.2416500" lon="35.1962100">
<ele>571.652405</ele>
<time>2009-12-04T06:56:42.000Z</time>
</trkpt>
<trkpt lat="31.2406800" lon="35.1958900">
<ele>568.756775</ele>
<time>2009-12-04T06:56:58.001Z</time>
</trkpt>
<trkpt lat="31.2399800" lon="35.1956500">
<ele>568.756775</ele>
<time>2009-12-04T06:57:11.998Z</time>
</trkpt>
<trkpt lat="31.2392300" lon="35.1954400">
<ele>571.652405</ele>
<time>2009-12-04T06:57:32.000Z</time>
</trkpt>
<trkpt lat="31.2384400" lon="35.1951900">
<ele>574.517517</ele>
<time>2009-12-04T06:57:53.997Z</time>
</trkpt>
<trkpt lat="31.2377200" lon="35.1949800">
<ele>577.413147</ele>
<time>2009-12-04T06:58:15.001Z</time>
</trkpt>
<trkpt lat="31.2370900" lon="35.1947700">
<ele>579.333374</ele>
<time>2009-12-04T06:58:34.000Z</time>
</trkpt>
<trkpt lat="31.2364500" lon="35.1946300">
<ele>582.228943</ele>
<time>2009-12-04T06:58:54.002Z</time>
</trkpt>
<trkpt lat="31.2358200" lon="35.1946000">
<ele>584.149170</ele>
<time>2009-12-04T06:59:14.004Z</time>
</trkpt>
<trkpt lat="31.2351200" lon="35.1947200">
<ele>586.526672</ele>
<time>2009-12-04T06:59:36.001Z</time>
</trkpt>
<trkpt lat="31.2345300" lon="35.1949900">
<ele>588.477356</ele>
<time>2009-12-04T06:59:55.000Z</time>
</trkpt>
<trkpt lat="31.2340500" lon="35.1953500">
<ele>589.909912</ele>
<time>2009-12-04T07:00:12.004Z</time>
</trkpt>
<trkpt lat="31.2335600" lon="35.1958600">
<ele>590.854797</ele>
<time>2009-12-04T07:00:31.003Z</time>
</trkpt>
<trkpt lat="31.2330400" lon="35.1966000">
<ele>591.830139</ele>
<time>2009-12-04T07:00:53.001Z</time>
</trkpt>
<trkpt lat="31.2327370" lon="35.1971980">
<ele>593.750427</ele>
<time>2009-12-04T07:01:12.000Z</time>
</trkpt>
<trkpt lat="31.2328780" lon="35.1975260">
<ele>590.397583</ele>
<time>2009-12-04T07:02:16.999Z</time>
</trkpt>
<trkpt lat="31.2322790" lon="35.1980590">
<ele>589.422241</ele>
<time>2009-12-04T07:02:27.004Z</time>
</trkpt>
<trkpt lat="31.2317900" lon="35.1983800">
<ele>589.422241</ele>
<time>2009-12-04T07:02:39.998Z</time>
</trkpt>
<trkpt lat="31.2315600" lon="35.1987100">
<ele>590.397583</ele>
<time>2009-12-04T07:02:53.002Z</time>
</trkpt>
<trkpt lat="31.2312900" lon="35.1991300">
<ele>591.830139</ele>
<time>2009-12-04T07:03:09.003Z</time>
</trkpt>
<trkpt lat="31.2310200" lon="35.1995800">
<ele>594.238098</ele>
<time>2009-12-04T07:03:28.002Z</time>
</trkpt>
<trkpt lat="31.2308000" lon="35.2000900">
<ele>593.262756</ele>
<time>2009-12-04T07:03:44.004Z</time>
</trkpt>
<trkpt lat="31.2304800" lon="35.2004600">
<ele>593.750427</ele>
<time>2009-12-04T07:03:58.000Z</time>
</trkpt>
<trkpt lat="31.2301200" lon="35.2008400">
<ele>595.670654</ele>
<time>2009-12-04T07:04:14.002Z</time>
</trkpt>
<trkpt lat="31.2298600" lon="35.2012200">
<ele>596.645996</ele>
<time>2009-12-04T07:04:29.001Z</time>
</trkpt>
<trkpt lat="31.2296700" lon="35.2017100">
<ele>598.078552</ele>
<time>2009-12-04T07:04:44.000Z</time>
</trkpt>
<trkpt lat="31.2292900" lon="35.2022000">
<ele>600.974121</ele>
<time>2009-12-04T07:05:04.001Z</time>
</trkpt>
<trkpt lat="31.2289400" lon="35.2026800">
<ele>600.486450</ele>
<time>2009-12-04T07:05:20.996Z</time>
</trkpt>
<trkpt lat="31.2285200" lon="35.2031500">
<ele>599.511108</ele>
<time>2009-12-04T07:05:36.997Z</time>
</trkpt>
<trkpt lat="31.2282200" lon="35.2037100">
<ele>601.919067</ele>
<time>2009-12-04T07:05:54.001Z</time>
</trkpt>
<trkpt lat="31.2280000" lon="35.2041400">
<ele>603.351624</ele>
<time>2009-12-04T07:06:07.998Z</time>
</trkpt>
<trkpt lat="31.2276700" lon="35.2047400">
<ele>606.247192</ele>
<time>2009-12-04T07:06:27.999Z</time>
</trkpt>
<trkpt lat="31.2274500" lon="35.2052800">
<ele>607.222534</ele>
<time>2009-12-04T07:06:48.001Z</time>
</trkpt>
<trkpt lat="31.2271100" lon="35.2058400">
<ele>609.599976</ele>
<time>2009-12-04T07:07:08.996Z</time>
</trkpt>
<trkpt lat="31.2269500" lon="35.2061000">
<ele>612.007935</ele>
<time>2009-12-04T07:07:20.004Z</time>
</trkpt>
<trkpt lat="31.2266900" lon="35.2067600">
<ele>612.007935</ele>
<time>2009-12-04T07:07:42.001Z</time>
</trkpt>
<trkpt lat="31.2264800" lon="35.2071400">
<ele>613.470947</ele>
<time>2009-12-04T07:07:55.004Z</time>
</trkpt>
<trkpt lat="31.2263100" lon="35.2077800">
<ele>612.983276</ele>
<time>2009-12-04T07:08:14.004Z</time>
</trkpt>
<trkpt lat="31.2260400" lon="35.2080300">
<ele>614.415833</ele>
<time>2009-12-04T07:08:25.996Z</time>
</trkpt>
<trkpt lat="31.2257400" lon="35.2084500">
<ele>615.391174</ele>
<time>2009-12-04T07:08:42.999Z</time>
</trkpt>
<trkpt lat="31.2254400" lon="35.2089200">
<ele>615.848389</ele>
<time>2009-12-04T07:09:01.999Z</time>
</trkpt>
<trkpt lat="31.2252500" lon="35.2092300">
<ele>619.231689</ele>
<time>2009-12-04T07:09:15.002Z</time>
</trkpt>
<trkpt lat="31.2249900" lon="35.2096600">
<ele>619.719360</ele>
<time>2009-12-04T07:09:31.997Z</time>
</trkpt>
<trkpt lat="31.2248000" lon="35.2098800">
<ele>620.176575</ele>
<time>2009-12-04T07:09:42.002Z</time>
</trkpt>
<trkpt lat="31.2245100" lon="35.2099400">
<ele>622.584473</ele>
<time>2009-12-04T07:09:58.003Z</time>
</trkpt>
<trkpt lat="31.2242300" lon="35.2099900">
<ele>624.047546</ele>
<time>2009-12-04T07:10:14.998Z</time>
</trkpt>
<trkpt lat="31.2239500" lon="35.2099600">
<ele>626.912659</ele>
<time>2009-12-04T07:10:33.997Z</time>
</trkpt>
<trkpt lat="31.2237600" lon="35.2097200">
<ele>628.345215</ele>
<time>2009-12-04T07:10:51.001Z</time>
</trkpt>
<trkpt lat="31.2237200" lon="35.2095400">
<ele>629.808228</ele>
<time>2009-12-04T07:11:00.004Z</time>
</trkpt>
<trkpt lat="31.2236200" lon="35.2093000">
<ele>631.240784</ele>
<time>2009-12-04T07:11:15.996Z</time>
</trkpt>
<trkpt lat="31.2232500" lon="35.2091300">
<ele>627.888000</ele>
<time>2009-12-04T07:14:13.004Z</time>
</trkpt>
<trkpt lat="31.2229900" lon="35.2090600">
<ele>624.504700</ele>
<time>2009-12-04T07:14:17.998Z</time>
</trkpt>
<trkpt lat="31.2228800" lon="35.2090300">
<ele>623.072144</ele>
<time>2009-12-04T07:14:20.003Z</time>
</trkpt>
<trkpt lat="31.2226300" lon="35.2089900">
<ele>620.176575</ele>
<time>2009-12-04T07:14:24.003Z</time>
</trkpt>
<trkpt lat="31.2224300" lon="35.2090200">
<ele>618.256348</ele>
<time>2009-12-04T07:14:27.001Z</time>
</trkpt>
<trkpt lat="31.2223500" lon="35.2090200">
<ele>618.256348</ele>
<time>2009-12-04T07:14:28.003Z</time>
</trkpt>
<trkpt lat="31.2220100" lon="35.2089000">
<ele>615.848389</ele>
<time>2009-12-04T07:14:33.999Z</time>
</trkpt>
<trkpt lat="31.2219100" lon="35.2088100">
<ele>614.903503</ele>
<time>2009-12-04T07:14:43.002Z</time>
</trkpt>
<trkpt lat="31.2218400" lon="35.2087400">
<ele>614.415833</ele>
<time>2009-12-04T07:16:35.996Z</time>
</trkpt>
<trkpt lat="31.2214500" lon="35.2085300">
<ele>612.007935</ele>
<time>2009-12-04T07:16:46.001Z</time>
</trkpt>
<trkpt lat="31.2212800" lon="35.2083600">
<ele>610.087646</ele>
<time>2009-12-04T07:16:50.002Z</time>
</trkpt>
<trkpt lat="31.2210200" lon="35.2077700">
<ele>606.247192</ele>
<time>2009-12-04T07:16:59.998Z</time>
</trkpt>
<trkpt lat="31.2209000" lon="35.2074000">
<ele>605.759521</ele>
<time>2009-12-04T07:17:06.003Z</time>
</trkpt>
<trkpt lat="31.2207900" lon="35.2070800">
<ele>603.351624</ele>
<time>2009-12-04T07:17:11.999Z</time>
</trkpt>
<trkpt lat="31.2206900" lon="35.2067400">
<ele>601.431335</ele>
<time>2009-12-04T07:17:17.002Z</time>
</trkpt>
<trkpt lat="31.2204900" lon="35.2062200">
<ele>598.566284</ele>
<time>2009-12-04T07:17:24.000Z</time>
</trkpt>
<trkpt lat="31.2203500" lon="35.2059000">
<ele>599.998779</ele>
<time>2009-12-04T07:17:29.996Z</time>
</trkpt>
<trkpt lat="31.2200100" lon="35.2057000">
<ele>602.894409</ele>
<time>2009-12-04T07:17:40.001Z</time>
</trkpt>
<trkpt lat="31.2195300" lon="35.2054900">
<ele>605.759521</ele>
<time>2009-12-04T07:17:57.998Z</time>
</trkpt>
<trkpt lat="31.2190800" lon="35.2053900">
<ele>606.247192</ele>
<time>2009-12-04T07:18:12.997Z</time>
</trkpt>
<trkpt lat="31.2189600" lon="35.2054000">
<ele>605.759521</ele>
<time>2009-12-04T07:18:16.004Z</time>
</trkpt>
<trkpt lat="31.2187500" lon="35.2054200">
<ele>605.759521</ele>
<time>2009-12-04T07:18:20.998Z</time>
</trkpt>
<trkpt lat="31.2183700" lon="35.2054000">
<ele>608.655151</ele>
<time>2009-12-04T07:18:32.999Z</time>
</trkpt>
<trkpt lat="31.2179900" lon="35.2054100">
<ele>609.599976</ele>
<time>2009-12-04T07:18:49.000Z</time>
</trkpt>
<trkpt lat="31.2174100" lon="35.2055500">
<ele>608.167480</ele>
<time>2009-12-04T07:19:03.999Z</time>
</trkpt>
<trkpt lat="31.2173600" lon="35.2055700">
<ele>608.167480</ele>
<time>2009-12-04T07:19:05.002Z</time>
</trkpt>
<trkpt lat="31.2171000" lon="35.2057700">
<ele>607.222534</ele>
<time>2009-12-04T07:19:10.998Z</time>
</trkpt>
<trkpt lat="31.2164700" lon="35.2065100">
<ele>606.734863</ele>
<time>2009-12-04T07:19:26.999Z</time>
</trkpt>
<trkpt lat="31.2161200" lon="35.2071100">
<ele>609.599976</ele>
<time>2009-12-04T07:19:41.998Z</time>
</trkpt>
<trkpt lat="31.2158800" lon="35.2077500">
<ele>611.550720</ele>
<time>2009-12-04T07:20:00.997Z</time>
</trkpt>
<trkpt lat="31.2157500" lon="35.2080400">
<ele>614.903503</ele>
<time>2009-12-04T07:20:15.003Z</time>
</trkpt>
<trkpt lat="31.2155500" lon="35.2083300">
<ele>615.848389</ele>
<time>2009-12-04T07:20:34.002Z</time>
</trkpt>
<trkpt lat="31.2154700" lon="35.2084200">
<ele>615.391174</ele>
<time>2009-12-04T07:20:50.004Z</time>
</trkpt>
<trkpt lat="31.2154700" lon="35.2084100">
<ele>615.391174</ele>
<time>2009-12-04T07:22:38.997Z</time>
</trkpt>
<trkpt lat="31.2153200" lon="35.2086100">
<ele>612.983276</ele>
<time>2009-12-04T07:23:09.004Z</time>
</trkpt>
<trkpt lat="31.2152000" lon="35.2088500">
<ele>610.575317</ele>
<time>2009-12-04T07:23:13.004Z</time>
</trkpt>
<trkpt lat="31.2150300" lon="35.2092500">
<ele>607.222534</ele>
<time>2009-12-04T07:23:19.000Z</time>
</trkpt>
<trkpt lat="31.2150000" lon="35.2093100">
<ele>606.734863</ele>
<time>2009-12-04T07:23:20.003Z</time>
</trkpt>
<trkpt lat="31.2147300" lon="35.2097600">
<ele>604.814636</ele>
<time>2009-12-04T07:23:27.001Z</time>
</trkpt>
<trkpt lat="31.2146000" lon="35.2100700">
<ele>603.839294</ele>
<time>2009-12-04T07:23:31.001Z</time>
</trkpt>
<trkpt lat="31.2141400" lon="35.2110000">
<ele>601.919067</ele>
<time>2009-12-04T07:23:46.000Z</time>
</trkpt>
<trkpt lat="31.2138300" lon="35.2115400">
<ele>599.511108</ele>
<time>2009-12-04T07:23:59.004Z</time>
</trkpt>
<trkpt lat="31.2135900" lon="35.2117900">
<ele>601.431335</ele>
<time>2009-12-04T07:24:10.002Z</time>
</trkpt>
<trkpt lat="31.2133900" lon="35.2120400">
<ele>604.814636</ele>
<time>2009-12-04T07:24:25.001Z</time>
</trkpt>
<trkpt lat="31.2131600" lon="35.2123100">
<ele>607.222534</ele>
<time>2009-12-04T07:24:44.001Z</time>
</trkpt>
<trkpt lat="31.2129300" lon="35.2125800">
<ele>609.599976</ele>
<time>2009-12-04T07:25:01.998Z</time>
</trkpt>
<trkpt lat="31.2125600" lon="35.2129800">
<ele>607.679749</ele>
<time>2009-12-04T07:25:16.997Z</time>
</trkpt>
<trkpt lat="31.2123900" lon="35.2131600">
<ele>605.759521</ele>
<time>2009-12-04T07:25:20.997Z</time>
</trkpt>
<trkpt lat="31.2120800" lon="35.2134400">
<ele>603.839294</ele>
<time>2009-12-04T07:25:27.002Z</time>
</trkpt>
<trkpt lat="31.2119300" lon="35.2136300">
<ele>605.302307</ele>
<time>2009-12-04T07:25:31.002Z</time>
</trkpt>
<trkpt lat="31.2114200" lon="35.2140200">
<ele>607.222534</ele>
<time>2009-12-04T07:25:47.004Z</time>
</trkpt>
<trkpt lat="31.2110800" lon="35.2142600">
<ele>609.599976</ele>
<time>2009-12-04T07:26:02.003Z</time>
</trkpt>
<trkpt lat="31.2106500" lon="35.2144700">
<ele>610.575317</ele>
<time>2009-12-04T07:26:18.004Z</time>
</trkpt>
<trkpt lat="31.2104300" lon="35.2144800">
<ele>609.142822</ele>
<time>2009-12-04T07:26:22.998Z</time>
</trkpt>
<trkpt lat="31.2099400" lon="35.2145400">
<ele>605.759521</ele>
<time>2009-12-04T07:26:30.998Z</time>
</trkpt>
<trkpt lat="31.2096200" lon="35.2146200">
<ele>602.894409</ele>
<time>2009-12-04T07:26:34.999Z</time>
</trkpt>
<trkpt lat="31.2092100" lon="35.2147100">
<ele>600.974121</ele>
<time>2009-12-04T07:26:40.001Z</time>
</trkpt>
<trkpt lat="31.2089500" lon="35.2146500">
<ele>602.406738</ele>
<time>2009-12-04T07:26:45.004Z</time>
</trkpt>
<trkpt lat="31.2083000" lon="35.2140800">
<ele>603.839294</ele>
<time>2009-12-04T07:27:04.003Z</time>
</trkpt>
<trkpt lat="31.2080300" lon="35.2137500">
<ele>606.247192</ele>
<time>2009-12-04T07:27:19.002Z</time>
</trkpt>
<trkpt lat="31.2078300" lon="35.2134900">
<ele>609.142822</ele>
<time>2009-12-04T07:27:35.004Z</time>
</trkpt>
<trkpt lat="31.2075700" lon="35.2132300">
<ele>609.599976</ele>
<time>2009-12-04T07:27:50.996Z</time>
</trkpt>
<trkpt lat="31.2071900" lon="35.2131500">
<ele>609.599976</ele>
<time>2009-12-04T07:28:05.002Z</time>
</trkpt>
<trkpt lat="31.2071100" lon="35.2131700">
<ele>608.655151</ele>
<time>2009-12-04T07:28:06.997Z</time>
</trkpt>
<trkpt lat="31.2068500" lon="35.2133100">
<ele>606.734863</ele>
<time>2009-12-04T07:28:13.002Z</time>
</trkpt>
<trkpt lat="31.2063700" lon="35.2136900">
<ele>603.839294</ele>
<time>2009-12-04T07:28:24.001Z</time>
</trkpt>
<trkpt lat="31.2062200" lon="35.2138100">
<ele>601.919067</ele>
<time>2009-12-04T07:28:26.999Z</time>
</trkpt>
<trkpt lat="31.2059700" lon="35.2139700">
<ele>598.566284</ele>
<time>2009-12-04T07:28:30.999Z</time>
</trkpt>
<trkpt lat="31.2056800" lon="35.2141300">
<ele>595.182922</ele>
<time>2009-12-04T07:28:35.000Z</time>
</trkpt>
<trkpt lat="31.2048500" lon="35.2146200">
<ele>593.262756</ele>
<time>2009-12-04T07:28:48.003Z</time>
</trkpt>
<trkpt lat="31.2044500" lon="35.2147300">
<ele>594.238098</ele>
<time>2009-12-04T07:29:00.004Z</time>
</trkpt>
<trkpt lat="31.2041600" lon="35.2145400">
<ele>596.158325</ele>
<time>2009-12-04T07:29:11.996Z</time>
</trkpt>
<trkpt lat="31.2038900" lon="35.2144700">
<ele>599.023438</ele>
<time>2009-12-04T07:29:27.997Z</time>
</trkpt>
<trkpt lat="31.2036200" lon="35.2145300">
<ele>600.486450</ele>
<time>2009-12-04T07:29:45.001Z</time>
</trkpt>
<trkpt lat="31.2033300" lon="35.2148000">
<ele>600.486450</ele>
<time>2009-12-04T07:30:02.998Z</time>
</trkpt>
<trkpt lat="31.2032000" lon="35.2148900">
<ele>600.974121</ele>
<time>2009-12-04T07:30:09.003Z</time>
</trkpt>
<trkpt lat="31.2029800" lon="35.2148200">
<ele>602.894409</ele>
<time>2009-12-04T07:30:21.997Z</time>
</trkpt>
<trkpt lat="31.2026600" lon="35.2147200">
<ele>604.326965</ele>
<time>2009-12-04T07:30:40.997Z</time>
</trkpt>
<trkpt lat="31.2025400" lon="35.2146800">
<ele>606.247192</ele>
<time>2009-12-04T07:30:48.997Z</time>
</trkpt>
<trkpt lat="31.2022800" lon="35.2146000">
<ele>609.142822</ele>
<time>2009-12-04T07:31:07.003Z</time>
</trkpt>
<trkpt lat="31.2020500" lon="35.2145200">
<ele>610.575317</ele>
<time>2009-12-04T07:31:25.000Z</time>
</trkpt>
<trkpt lat="31.2018500" lon="35.2144400">
<ele>612.983276</ele>
<time>2009-12-04T07:31:42.004Z</time>
</trkpt>
<trkpt lat="31.2015800" lon="35.2144200">
<ele>615.391174</ele>
<time>2009-12-04T07:32:02.999Z</time>
</trkpt>
<trkpt lat="31.2013900" lon="35.2144900">
<ele>615.391174</ele>
<time>2009-12-04T07:32:17.998Z</time>
</trkpt>
<trkpt lat="31.2010600" lon="35.2148100">
<ele>614.415833</ele>
<time>2009-12-04T07:32:35.002Z</time>
</trkpt>
<trkpt lat="31.2006400" lon="35.2153100">
<ele>613.470947</ele>
<time>2009-12-04T07:32:51.996Z</time>
</trkpt>
<trkpt lat="31.2002400" lon="35.2155400">
<ele>613.470947</ele>
<time>2009-12-04T07:33:06.002Z</time>
</trkpt>
<trkpt lat="31.2002100" lon="35.2155400">
<ele>612.983276</ele>
<time>2009-12-04T07:33:07.004Z</time>
</trkpt>
<trkpt lat="31.2001600" lon="35.2154900">
<ele>612.983276</ele>
<time>2009-12-04T07:33:10.996Z</time>
</trkpt>
<trkpt lat="31.2000800" lon="35.2152300">
<ele>612.007935</ele>
<time>2009-12-04T07:33:25.001Z</time>
</trkpt>
<trkpt lat="31.2002000" lon="35.2150500">
<ele>610.087646</ele>
<time>2009-12-04T07:35:11.999Z</time>
</trkpt>
<trkpt lat="31.2003200" lon="35.2148200">
<ele>608.167480</ele>
<time>2009-12-04T07:35:17.002Z</time>
</trkpt>
<trkpt lat="31.2003600" lon="35.2147100">
<ele>607.222534</ele>
<time>2009-12-04T07:35:18.997Z</time>
</trkpt>
<trkpt lat="31.2004000" lon="35.2145300">
<ele>602.894409</ele>
<time>2009-12-04T07:35:22.004Z</time>
</trkpt>
<trkpt lat="31.2004100" lon="35.2144600">
<ele>602.894409</ele>
<time>2009-12-04T07:35:22.998Z</time>
</trkpt>
<trkpt lat="31.2003900" lon="35.2140800">
<ele>599.023438</ele>
<time>2009-12-04T07:35:28.000Z</time>
</trkpt>
<trkpt lat="31.2003500" lon="35.2139300">
<ele>596.158325</ele>
<time>2009-12-04T07:35:29.996Z</time>
</trkpt>
<trkpt lat="31.2003100" lon="35.2137900">
<ele>594.238098</ele>
<time>2009-12-04T07:35:32.001Z</time>
</trkpt>
<trkpt lat="31.2002900" lon="35.2137300">
<ele>593.750427</ele>
<time>2009-12-04T07:35:33.003Z</time>
</trkpt>
<trkpt lat="31.2002700" lon="35.2136200">
<ele>592.775024</ele>
<time>2009-12-04T07:35:34.999Z</time>
</trkpt>
<trkpt lat="31.2001800" lon="35.2134300">
<ele>591.830139</ele>
<time>2009-12-04T07:35:38.999Z</time>
</trkpt>
<trkpt lat="31.2001200" lon="35.2133500">
<ele>591.342468</ele>
<time>2009-12-04T07:35:41.004Z</time>
</trkpt>
<trkpt lat="31.2000600" lon="35.2132700">
<ele>590.397583</ele>
<time>2009-12-04T07:35:42.999Z</time>
</trkpt>
<trkpt lat="31.2000100" lon="35.2131700">
<ele>588.934570</ele>
<time>2009-12-04T07:35:45.004Z</time>
</trkpt>
<trkpt lat="31.1999600" lon="35.2129700">
<ele>586.526672</ele>
<time>2009-12-04T07:35:49.004Z</time>
</trkpt>
<trkpt lat="31.1997300" lon="35.2127000">
<ele>581.741272</ele>
<time>2009-12-04T07:35:56.996Z</time>
</trkpt>
<trkpt lat="31.1996900" lon="35.2126700">
<ele>580.765930</ele>
<time>2009-12-04T07:35:57.998Z</time>
</trkpt>
<trkpt lat="31.1996000" lon="35.2126300">
<ele>579.821045</ele>
<time>2009-12-04T07:36:00.003Z</time>
</trkpt>
<trkpt lat="31.1995000" lon="35.2126000">
<ele>579.333374</ele>
<time>2009-12-04T07:36:01.999Z</time>
</trkpt>
<trkpt lat="31.1992200" lon="35.2125800">
<ele>575.492859</ele>
<time>2009-12-04T07:36:07.001Z</time>
</trkpt>
<trkpt lat="31.1989500" lon="35.2126200">
<ele>573.084961</ele>
<time>2009-12-04T07:36:11.002Z</time>
</trkpt>
<trkpt lat="31.1986500" lon="35.2126600">
<ele>570.677063</ele>
<time>2009-12-04T07:36:15.002Z</time>
</trkpt>
<trkpt lat="31.1983200" lon="35.2125400">
<ele>568.269104</ele>
<time>2009-12-04T07:36:20.998Z</time>
</trkpt>
<trkpt lat="31.1980000" lon="35.2122900">
<ele>563.483765</ele>
<time>2009-12-04T07:36:27.996Z</time>
</trkpt>
<trkpt lat="31.1979000" lon="35.2122000">
<ele>561.533081</ele>
<time>2009-12-04T07:36:30.001Z</time>
</trkpt>
<trkpt lat="31.1975900" lon="35.2120800">
<ele>558.180237</ele>
<time>2009-12-04T07:36:35.004Z</time>
</trkpt>
<trkpt lat="31.1974000" lon="35.2120800">
<ele>555.284668</ele>
<time>2009-12-04T07:36:38.002Z</time>
</trkpt>
<trkpt lat="31.1971200" lon="35.2120900">
<ele>550.986938</ele>
<time>2009-12-04T07:36:42.002Z</time>
</trkpt>
<trkpt lat="31.1965900" lon="35.2120700">
<ele>550.011597</ele>
<time>2009-12-04T07:36:49.000Z</time>
</trkpt>
<trkpt lat="31.1963000" lon="35.2119900">
<ele>552.907227</ele>
<time>2009-12-04T07:36:58.997Z</time>
</trkpt>
<trkpt lat="31.1959800" lon="35.2119500">
<ele>554.339722</ele>
<time>2009-12-04T07:37:13.002Z</time>
</trkpt>
<trkpt lat="31.1957100" lon="35.2118700">
<ele>557.235352</ele>
<time>2009-12-04T07:37:30.999Z</time>
</trkpt>
<trkpt lat="31.1954100" lon="35.2118200">
<ele>559.612793</ele>
<time>2009-12-04T07:37:52.003Z</time>
</trkpt>
<trkpt lat="31.1952900" lon="35.2118000">
<ele>560.588135</ele>
<time>2009-12-04T07:38:00.997Z</time>
</trkpt>
<trkpt lat="31.1952500" lon="35.2117900">
<ele>561.075867</ele>
<time>2009-12-04T07:41:09.997Z</time>
</trkpt>
<trkpt lat="31.1949600" lon="35.2117300">
<ele>563.483765</ele>
<time>2009-12-04T07:41:27.001Z</time>
</trkpt>
<trkpt lat="31.1946500" lon="35.2117200">
<ele>565.861206</ele>
<time>2009-12-04T07:41:46.000Z</time>
</trkpt>
<trkpt lat="31.1944200" lon="35.2119000">
<ele>567.324280</ele>
<time>2009-12-04T07:42:00.999Z</time>
</trkpt>
<trkpt lat="31.1942000" lon="35.2120900">
<ele>568.756775</ele>
<time>2009-12-04T07:42:17.001Z</time>
</trkpt>
<trkpt lat="31.1940200" lon="35.2122400">
<ele>569.244446</ele>
<time>2009-12-04T07:42:26.997Z</time>
</trkpt>
<trkpt lat="31.1938500" lon="35.2123000">
<ele>567.324280</ele>
<time>2009-12-04T07:43:43.003Z</time>
</trkpt>
<trkpt lat="31.1934800" lon="35.2124200">
<ele>562.996094</ele>
<time>2009-12-04T07:43:51.004Z</time>
</trkpt>
<trkpt lat="31.1932100" lon="35.2125200">
<ele>560.588135</ele>
<time>2009-12-04T07:43:55.004Z</time>
</trkpt>
<trkpt lat="31.1926700" lon="35.2127200">
<ele>562.020752</ele>
<time>2009-12-04T07:44:06.003Z</time>
</trkpt>
<trkpt lat="31.1924600" lon="35.2125800">
<ele>561.533081</ele>
<time>2009-12-04T07:44:20.000Z</time>
</trkpt>
<trkpt lat="31.1922800" lon="35.2122500">
<ele>561.533081</ele>
<time>2009-12-04T07:44:34.999Z</time>
</trkpt>
<trkpt lat="31.1920000" lon="35.2118500">
<ele>558.667908</ele>
<time>2009-12-04T07:44:49.004Z</time>
</trkpt>
<trkpt lat="31.1917000" lon="35.2114200">
<ele>554.827454</ele>
<time>2009-12-04T07:45:01.999Z</time>
</trkpt>
<trkpt lat="31.1915800" lon="35.2112500">
<ele>550.986938</ele>
<time>2009-12-04T07:45:07.001Z</time>
</trkpt>
<trkpt lat="31.1914400" lon="35.2108500">
<ele>547.116028</ele>
<time>2009-12-04T07:45:16.004Z</time>
</trkpt>
<trkpt lat="31.1913400" lon="35.2106300">
<ele>545.195740</ele>
<time>2009-12-04T07:45:20.998Z</time>
</trkpt>
<trkpt lat="31.1912400" lon="35.2103900">
<ele>541.842957</ele>
<time>2009-12-04T07:45:26.001Z</time>
</trkpt>
<trkpt lat="31.1911700" lon="35.2101900">
<ele>539.922729</ele>
<time>2009-12-04T07:45:30.001Z</time>
</trkpt>
<trkpt lat="31.1908800" lon="35.2094600">
<ele>537.514771</ele>
<time>2009-12-04T07:45:43.998Z</time>
</trkpt>
<trkpt lat="31.1908400" lon="35.2093800">
<ele>537.514771</ele>
<time>2009-12-04T07:49:50.998Z</time>
</trkpt>
<trkpt lat="31.1905600" lon="35.2090800">
<ele>535.106873</ele>
<time>2009-12-04T07:50:02.999Z</time>
</trkpt>
<trkpt lat="31.1901900" lon="35.2089100">
<ele>532.241760</ele>
<time>2009-12-04T07:50:11.000Z</time>
</trkpt>
<trkpt lat="31.1897300" lon="35.2086600">
<ele>528.370789</ele>
<time>2009-12-04T07:50:21.998Z</time>
</trkpt>
<trkpt lat="31.1895100" lon="35.2085600">
<ele>527.425903</ele>
<time>2009-12-04T07:50:27.001Z</time>
</trkpt>
<trkpt lat="31.1892600" lon="35.2084300">
<ele>525.993347</ele>
<time>2009-12-04T07:50:33.999Z</time>
</trkpt>
<trkpt lat="31.1887500" lon="35.2081300">
<ele>526.938232</ele>
<time>2009-12-04T07:50:51.003Z</time>
</trkpt>
<trkpt lat="31.1885600" lon="35.2080400">
<ele>527.425903</ele>
<time>2009-12-04T07:52:01.004Z</time>
</trkpt>
<trkpt lat="31.1882800" lon="35.2077600">
<ele>525.018005</ele>
<time>2009-12-04T07:52:16.997Z</time>
</trkpt>
<trkpt lat="31.1880700" lon="35.2075700">
<ele>521.177551</ele>
<time>2009-12-04T07:52:23.002Z</time>
</trkpt>
<trkpt lat="31.1879300" lon="35.2073800">
<ele>519.744934</ele>
<time>2009-12-04T07:52:27.002Z</time>
</trkpt>
<trkpt lat="31.1876700" lon="35.2070700">
<ele>516.361694</ele>
<time>2009-12-04T07:52:32.998Z</time>
</trkpt>
<trkpt lat="31.1872100" lon="35.2065100">
<ele>514.929138</ele>
<time>2009-12-04T07:52:46.001Z</time>
</trkpt>
<trkpt lat="31.1867000" lon="35.2059100">
<ele>513.008850</ele>
<time>2009-12-04T07:53:03.998Z</time>
</trkpt>
<trkpt lat="31.1861000" lon="35.2051900">
<ele>509.625610</ele>
<time>2009-12-04T07:53:22.998Z</time>
</trkpt>
<trkpt lat="31.1857600" lon="35.2047000">
<ele>506.272797</ele>
<time>2009-12-04T07:53:37.003Z</time>
</trkpt>
<trkpt lat="31.1856900" lon="35.2046300">
<ele>505.297455</ele>
<time>2009-12-04T07:53:38.999Z</time>
</trkpt>
<trkpt lat="31.1853800" lon="35.2043500">
<ele>507.217682</ele>
<time>2009-12-04T07:53:51.000Z</time>
</trkpt>
<trkpt lat="31.1850300" lon="35.2042700">
<ele>508.680725</ele>
<time>2009-12-04T07:54:08.004Z</time>
</trkpt>
<trkpt lat="31.1845900" lon="35.2043300">
<ele>507.705353</ele>
<time>2009-12-04T07:54:23.003Z</time>
</trkpt>
<trkpt lat="31.1841900" lon="35.2044300">
<ele>504.352539</ele>
<time>2009-12-04T07:54:34.001Z</time>
</trkpt>
<trkpt lat="31.1839700" lon="35.2045200">
<ele>501.944641</ele>
<time>2009-12-04T07:54:39.997Z</time>
</trkpt>
<trkpt lat="31.1835200" lon="35.2046300">
<ele>499.536713</ele>
<time>2009-12-04T07:54:50.996Z</time>
</trkpt>
<trkpt lat="31.1832900" lon="35.2046800">
<ele>496.671600</ele>
<time>2009-12-04T07:54:55.999Z</time>
</trkpt>
<trkpt lat="31.1827400" lon="35.2048200">
<ele>492.800659</ele>
<time>2009-12-04T07:55:06.997Z</time>
</trkpt>
<trkpt lat="31.1824800" lon="35.2049200">
<ele>489.447845</ele>
<time>2009-12-04T07:55:13.002Z</time>
</trkpt>
<trkpt lat="31.1822700" lon="35.2050900">
<ele>486.552246</ele>
<time>2009-12-04T07:55:21.996Z</time>
</trkpt>
<trkpt lat="31.1822100" lon="35.2051300">
<ele>486.552246</ele>
<time>2009-12-04T07:55:36.002Z</time>
</trkpt>
<trkpt lat="31.1821000" lon="35.2052400">
<ele>483.199463</ele>
<time>2009-12-04T07:56:23.997Z</time>
</trkpt>
<trkpt lat="31.1820500" lon="35.2052900">
<ele>481.766876</ele>
<time>2009-12-04T07:56:27.004Z</time>
</trkpt>
<trkpt lat="31.1819600" lon="35.2054200">
<ele>478.383606</ele>
<time>2009-12-04T07:56:33.000Z</time>
</trkpt>
<trkpt lat="31.1819200" lon="35.2055500">
<ele>475.030792</ele>
<time>2009-12-04T07:56:42.003Z</time>
</trkpt>
<trkpt lat="31.1818900" lon="35.2056500">
<ele>472.622864</ele>
<time>2009-12-04T07:56:50.997Z</time>
</trkpt>
<trkpt lat="31.1818500" lon="35.2057600">
<ele>470.702667</ele>
<time>2009-12-04T07:57:08.001Z</time>
</trkpt>
<trkpt lat="31.1817900" lon="35.2059100">
<ele>466.374481</ele>
<time>2009-12-04T07:57:16.001Z</time>
</trkpt>
<trkpt lat="31.1817700" lon="35.2060100">
<ele>464.454254</ele>
<time>2009-12-04T07:57:20.002Z</time>
</trkpt>
<trkpt lat="31.1817500" lon="35.2061700">
<ele>461.101440</ele>
<time>2009-12-04T07:57:27.000Z</time>
</trkpt>
<trkpt lat="31.1817500" lon="35.2063300">
<ele>457.718140</ele>
<time>2009-12-04T07:57:32.003Z</time>
</trkpt>
<trkpt lat="31.1817200" lon="35.2064400">
<ele>453.877686</ele>
<time>2009-12-04T07:57:35.001Z</time>
</trkpt>
<trkpt lat="31.1815800" lon="35.2065700">
<ele>450.524872</ele>
<time>2009-12-04T07:57:40.003Z</time>
</trkpt>
<trkpt lat="31.1815100" lon="35.2065900">
<ele>449.549530</ele>
<time>2009-12-04T07:57:41.999Z</time>
</trkpt>
<trkpt lat="31.1814100" lon="35.2065800">
<ele>447.629272</ele>
<time>2009-12-04T07:57:44.997Z</time>
</trkpt>
<trkpt lat="31.1812900" lon="35.2065400">
<ele>444.276459</ele>
<time>2009-12-04T07:57:48.997Z</time>
</trkpt>
<trkpt lat="31.1810000" lon="35.2065300">
<ele>441.868530</ele>
<time>2009-12-04T07:57:55.002Z</time>
</trkpt>
<trkpt lat="31.1805400" lon="35.2065700">
<ele>439.460663</ele>
<time>2009-12-04T07:58:07.003Z</time>
</trkpt>
<trkpt lat="31.1805400" lon="35.2065800">
<ele>438.485260</ele>
<time>2009-12-04T07:58:41.002Z</time>
</trkpt>
<trkpt lat="31.1804900" lon="35.2065500">
<ele>436.565063</ele>
<time>2009-12-04T08:01:44.999Z</time>
</trkpt>
<trkpt lat="31.1801500" lon="35.2065600">
<ele>436.107849</ele>
<time>2009-12-04T08:01:58.002Z</time>
</trkpt>
<trkpt lat="31.1798100" lon="35.2065700">
<ele>433.699921</ele>
<time>2009-12-04T08:02:09.001Z</time>
</trkpt>
<trkpt lat="31.1795900" lon="35.2065700">
<ele>430.804321</ele>
<time>2009-12-04T08:02:15.999Z</time>
</trkpt>
<trkpt lat="31.1795200" lon="35.2065700">
<ele>429.371735</ele>
<time>2009-12-04T08:02:18.004Z</time>
</trkpt>
<trkpt lat="31.1792400" lon="35.2065500">
<ele>425.988464</ele>
<time>2009-12-04T08:02:26.998Z</time>
</trkpt>
<trkpt lat="31.1791200" lon="35.2065300">
<ele>424.068268</ele>
<time>2009-12-04T08:02:30.998Z</time>
</trkpt>
<trkpt lat="31.1787900" lon="35.2065300">
<ele>420.715454</ele>
<time>2009-12-04T08:02:40.001Z</time>
</trkpt>
<trkpt lat="31.1786700" lon="35.2065300">
<ele>419.282867</ele>
<time>2009-12-04T08:02:42.999Z</time>
</trkpt>
<trkpt lat="31.1785900" lon="35.2065300">
<ele>418.307526</ele>
<time>2009-12-04T08:02:45.004Z</time>
</trkpt>
<trkpt lat="31.1784600" lon="35.2065400">
<ele>416.874939</ele>
<time>2009-12-04T08:02:48.002Z</time>
</trkpt>
<trkpt lat="31.1783200" lon="35.2065400">
<ele>414.954742</ele>
<time>2009-12-04T08:02:51.000Z</time>
</trkpt>
<trkpt lat="31.1782300" lon="35.2065300">
<ele>413.979340</ele>
<time>2009-12-04T08:02:52.996Z</time>
</trkpt>
<trkpt lat="31.1779100" lon="35.2065300">
<ele>410.626556</ele>
<time>2009-12-04T08:03:00.003Z</time>
</trkpt>
<trkpt lat="31.1777700" lon="35.2065500">
<ele>408.218658</ele>
<time>2009-12-04T08:03:03.001Z</time>
</trkpt>
<trkpt lat="31.1774700" lon="35.2065200">
<ele>405.810730</ele>
<time>2009-12-04T08:03:09.999Z</time>
</trkpt>
<trkpt lat="31.1771500" lon="35.2065300">
<ele>403.890472</ele>
<time>2009-12-04T08:03:16.998Z</time>
</trkpt>
<trkpt lat="31.1770200" lon="35.2065500">
<ele>401.970245</ele>
<time>2009-12-04T08:03:19.996Z</time>
</trkpt>
<trkpt lat="31.1769100" lon="35.2065900">
<ele>399.562317</ele>
<time>2009-12-04T08:03:23.003Z</time>
</trkpt>
<trkpt lat="31.1767300" lon="35.2067400">
<ele>396.209534</ele>
<time>2009-12-04T08:03:27.996Z</time>
</trkpt>
<trkpt lat="31.1765300" lon="35.2069700">
<ele>393.801605</ele>
<time>2009-12-04T08:03:34.001Z</time>
</trkpt>
<trkpt lat="31.1763200" lon="35.2072300">
<ele>389.961121</ele>
<time>2009-12-04T08:03:39.997Z</time>
</trkpt>
<trkpt lat="31.1761700" lon="35.2074200">
<ele>387.065521</ele>
<time>2009-12-04T08:03:43.998Z</time>
</trkpt>
<trkpt lat="31.1758600" lon="35.2078100">
<ele>383.712738</ele>
<time>2009-12-04T08:03:53.001Z</time>
</trkpt>
<trkpt lat="31.1756900" lon="35.2080200">
<ele>381.304810</ele>
<time>2009-12-04T08:04:02.004Z</time>
</trkpt>
<trkpt lat="31.1755500" lon="35.2081800">
<ele>378.409210</ele>
<time>2009-12-04T08:04:21.003Z</time>
</trkpt>
<trkpt lat="31.1754600" lon="35.2082800">
<ele>375.056396</ele>
<time>2009-12-04T08:04:25.003Z</time>
</trkpt>
<trkpt lat="31.1753300" lon="35.2084400">
<ele>372.160797</ele>
<time>2009-12-04T08:04:30.999Z</time>
</trkpt>
<trkpt lat="31.1752200" lon="35.2086300">
<ele>368.808014</ele>
<time>2009-12-04T08:04:37.004Z</time>
</trkpt>
<trkpt lat="31.1751700" lon="35.2087300">
<ele>366.887756</ele>
<time>2009-12-04T08:04:40.002Z</time>
</trkpt>
<trkpt lat="31.1750600" lon="35.2088500">
<ele>364.479858</ele>
<time>2009-12-04T08:04:44.003Z</time>
</trkpt>
<trkpt lat="31.1749600" lon="35.2089100">
<ele>361.127045</ele>
<time>2009-12-04T08:04:47.001Z</time>
</trkpt>
<trkpt lat="31.1749200" lon="35.2089200">
<ele>359.664001</ele>
<time>2009-12-04T08:04:48.003Z</time>
</trkpt>
<trkpt lat="31.1747100" lon="35.2089000">
<ele>356.311188</ele>
<time>2009-12-04T08:04:52.997Z</time>
</trkpt>
<trkpt lat="31.1745500" lon="35.2088400">
<ele>352.927917</ele>
<time>2009-12-04T08:04:56.997Z</time>
</trkpt>
<trkpt lat="31.1743000" lon="35.2087600">
<ele>349.575134</ele>
<time>2009-12-04T08:05:02.000Z</time>
</trkpt>
<trkpt lat="31.1741900" lon="35.2087200">
<ele>348.630249</ele>
<time>2009-12-04T08:05:04.004Z</time>
</trkpt>
<trkpt lat="31.1738300" lon="35.2085700">
<ele>347.167206</ele>
<time>2009-12-04T08:05:15.003Z</time>
</trkpt>
<trkpt lat="31.1737300" lon="35.2085100">
<ele>346.222321</ele>
<time>2009-12-04T08:08:46.000Z</time>
</trkpt>
<trkpt lat="31.1736100" lon="35.2084500">
<ele>344.302063</ele>
<time>2009-12-04T08:08:50.001Z</time>
</trkpt>
<trkpt lat="31.1734500" lon="35.2083700">
<ele>340.918793</ele>
<time>2009-12-04T08:08:55.003Z</time>
</trkpt>
<trkpt lat="31.1732300" lon="35.2082900">
<ele>337.078339</ele>
<time>2009-12-04T08:09:02.002Z</time>
</trkpt>
<trkpt lat="31.1731100" lon="35.2082500">
<ele>333.237854</ele>
<time>2009-12-04T08:09:06.002Z</time>
</trkpt>
<trkpt lat="31.1729400" lon="35.2082000">
<ele>329.854553</ele>
<time>2009-12-04T08:09:09.000Z</time>
</trkpt>
<trkpt lat="31.1728100" lon="35.2081700">
<ele>328.421997</ele>
<time>2009-12-04T08:09:10.996Z</time>
</trkpt>
<trkpt lat="31.1723300" lon="35.2080500">
<ele>324.581512</ele>
<time>2009-12-04T08:09:21.001Z</time>
</trkpt>
<trkpt lat="31.1720600" lon="35.2079900">
<ele>319.765686</ele>
<time>2009-12-04T08:09:26.997Z</time>
</trkpt>
<trkpt lat="31.1718500" lon="35.2079600">
<ele>315.925201</ele>
<time>2009-12-04T08:09:30.004Z</time>
</trkpt>
<trkpt lat="31.1713300" lon="35.2078700">
<ele>317.845459</ele>
<time>2009-12-04T08:09:40.000Z</time>
</trkpt>
<trkpt lat="31.1711500" lon="35.2078400">
<ele>315.925201</ele>
<time>2009-12-04T08:09:52.001Z</time>
</trkpt>
<trkpt lat="31.1707000" lon="35.2078400">
<ele>312.572388</ele>
<time>2009-12-04T08:10:05.998Z</time>
</trkpt>
<trkpt lat="31.1705200" lon="35.2078400">
<ele>309.676788</ele>
<time>2009-12-04T08:10:09.998Z</time>
</trkpt>
<trkpt lat="31.1703900" lon="35.2078600">
<ele>307.756561</ele>
<time>2009-12-04T08:10:12.996Z</time>
</trkpt>
<trkpt lat="31.1701500" lon="35.2078900">
<ele>304.860962</ele>
<time>2009-12-04T08:10:17.999Z</time>
</trkpt>
<trkpt lat="31.1700900" lon="35.2078900">
<ele>304.860962</ele>
<time>2009-12-04T08:10:19.001Z</time>
</trkpt>
<trkpt lat="31.1697600" lon="35.2079000">
<ele>301.020477</ele>
<time>2009-12-04T08:10:24.997Z</time>
</trkpt>
<trkpt lat="31.1694800" lon="35.2079200">
<ele>298.612549</ele>
<time>2009-12-04T08:10:30.000Z</time>
</trkpt>
<trkpt lat="31.1692500" lon="35.2079400">
<ele>297.179993</ele>
<time>2009-12-04T08:10:34.000Z</time>
</trkpt>
<trkpt lat="31.1689600" lon="35.2079600">
<ele>293.827209</ele>
<time>2009-12-04T08:10:39.003Z</time>
</trkpt>
<trkpt lat="31.1687500" lon="35.2079800">
<ele>289.986725</ele>
<time>2009-12-04T08:10:43.003Z</time>
</trkpt>
<trkpt lat="31.1684700" lon="35.2080000">
<ele>286.603424</ele>
<time>2009-12-04T08:10:47.997Z</time>
</trkpt>
<trkpt lat="31.1683100" lon="35.2080100">
<ele>284.683197</ele>
<time>2009-12-04T08:10:51.004Z</time>
</trkpt>
<trkpt lat="31.1680400" lon="35.2080200">
<ele>281.330414</ele>
<time>2009-12-04T08:10:55.998Z</time>
</trkpt>
<trkpt lat="31.1678200" lon="35.2080700">
<ele>277.002228</ele>
<time>2009-12-04T08:11:01.000Z</time>
</trkpt>
<trkpt lat="31.1677200" lon="35.2081000">
<ele>276.026886</ele>
<time>2009-12-04T08:11:02.996Z</time>
</trkpt>
<trkpt lat="31.1674800" lon="35.2081200">
<ele>274.106628</ele>
<time>2009-12-04T08:11:06.996Z</time>
</trkpt>
<trkpt lat="31.1672600" lon="35.2081500">
<ele>272.674072</ele>
<time>2009-12-04T08:11:11.999Z</time>
</trkpt>
<trkpt lat="31.1668200" lon="35.2082300">
<ele>269.321259</ele>
<time>2009-12-04T08:11:22.998Z</time>
</trkpt>
<trkpt lat="31.1667600" lon="35.2082400">
<ele>268.345917</ele>
<time>2009-12-04T08:11:25.002Z</time>
</trkpt>
<trkpt lat="31.1666900" lon="35.2082500">
<ele>264.993134</ele>
<time>2009-12-04T08:11:28.000Z</time>
</trkpt>
<trkpt lat="31.1665700" lon="35.2082600">
<ele>262.097534</ele>
<time>2009-12-04T08:11:32.001Z</time>
</trkpt>
<trkpt lat="31.1664700" lon="35.2082900">
<ele>260.177277</ele>
<time>2009-12-04T08:11:34.999Z</time>
</trkpt>
<trkpt lat="31.1663300" lon="35.2083300">
<ele>256.824463</ele>
<time>2009-12-04T08:11:37.997Z</time>
</trkpt>
<trkpt lat="31.1662300" lon="35.2083500">
<ele>252.953522</ele>
<time>2009-12-04T08:11:40.001Z</time>
</trkpt>
<trkpt lat="31.1661300" lon="35.2083700">
<ele>250.088394</ele>
<time>2009-12-04T08:11:41.997Z</time>
</trkpt>
<trkpt lat="31.1659100" lon="35.2083900">
<ele>245.272568</ele>
<time>2009-12-04T08:11:45.004Z</time>
</trkpt>
<trkpt lat="31.1654000" lon="35.2084800">
<ele>242.376968</ele>
<time>2009-12-04T08:11:51.000Z</time>
</trkpt>
<trkpt lat="31.1652000" lon="35.2085000">
<ele>240.456726</ele>
<time>2009-12-04T08:11:53.998Z</time>
</trkpt>
<trkpt lat="31.1650700" lon="35.2085200">
<ele>239.999527</ele>
<time>2009-12-04T08:11:56.003Z</time>
</trkpt>
<trkpt lat="31.1643800" lon="35.2087600">
<ele>239.999527</ele>
<time>2009-12-04T08:12:08.997Z</time>
</trkpt>
<trkpt lat="31.1642200" lon="35.2088000">
<ele>242.864639</ele>
<time>2009-12-04T08:12:16.004Z</time>
</trkpt>
<trkpt lat="31.1639500" lon="35.2088900">
<ele>239.024170</ele>
<time>2009-12-04T08:14:23.997Z</time>
</trkpt>
<trkpt lat="31.1636200" lon="35.2090900">
<ele>236.128571</ele>
<time>2009-12-04T08:14:31.004Z</time>
</trkpt>
<trkpt lat="31.1634200" lon="35.2092100">
<ele>233.263443</ele>
<time>2009-12-04T08:14:34.002Z</time>
</trkpt>
<trkpt lat="31.1628400" lon="35.2095900">
<ele>233.263443</ele>
<time>2009-12-04T08:14:45.001Z</time>
</trkpt>
<trkpt lat="31.1625900" lon="35.2097100">
<ele>231.343201</ele>
<time>2009-12-04T08:14:49.001Z</time>
</trkpt>
<trkpt lat="31.1622300" lon="35.2099400">
<ele>227.959930</ele>
<time>2009-12-04T08:14:54.004Z</time>
</trkpt>
<trkpt lat="31.1616900" lon="35.2103000">
<ele>224.119431</ele>
<time>2009-12-04T08:15:01.002Z</time>
</trkpt>
<trkpt lat="31.1613900" lon="35.2105100">
<ele>220.766632</ele>
<time>2009-12-04T08:15:05.003Z</time>
</trkpt>
<trkpt lat="31.1613100" lon="35.2105500">
<ele>220.766632</ele>
<time>2009-12-04T08:15:05.996Z</time>
</trkpt>
<trkpt lat="31.1611100" lon="35.2106800">
<ele>216.926163</ele>
<time>2009-12-04T08:15:09.003Z</time>
</trkpt>
<trkpt lat="31.1609700" lon="35.2107800">
<ele>215.950806</ele>
<time>2009-12-04T08:15:10.999Z</time>
</trkpt>
<trkpt lat="31.1606500" lon="35.2110200">
<ele>212.598007</ele>
<time>2009-12-04T08:15:16.001Z</time>
</trkpt>
<trkpt lat="31.1605300" lon="35.2111000">
<ele>209.702393</ele>
<time>2009-12-04T08:15:17.997Z</time>
</trkpt>
<trkpt lat="31.1603300" lon="35.2112700">
<ele>205.861923</ele>
<time>2009-12-04T08:15:21.004Z</time>
</trkpt>
<trkpt lat="31.1599700" lon="35.2115700">
<ele>202.966324</ele>
<time>2009-12-04T08:15:25.998Z</time>
</trkpt>
<trkpt lat="31.1597600" lon="35.2117600">
<ele>200.558395</ele>
<time>2009-12-04T08:15:28.996Z</time>
</trkpt>
<trkpt lat="31.1596400" lon="35.2118600">
<ele>204.429367</ele>
<time>2009-12-04T08:15:32.003Z</time>
</trkpt>
<trkpt lat="31.1592500" lon="35.2116100">
<ele>203.941666</ele>
<time>2009-12-04T08:15:48.004Z</time>
</trkpt>
<trkpt lat="31.1589100" lon="35.2113800">
<ele>200.558395</ele>
<time>2009-12-04T08:15:54.000Z</time>
</trkpt>
<trkpt lat="31.1583800" lon="35.2110700">
<ele>197.205597</ele>
<time>2009-12-04T08:16:03.003Z</time>
</trkpt>
<trkpt lat="31.1581300" lon="35.2109300">
<ele>196.717926</ele>
<time>2009-12-04T08:16:07.003Z</time>
</trkpt>
<trkpt lat="31.1578800" lon="35.2107500">
<ele>195.285370</ele>
<time>2009-12-04T08:16:11.004Z</time>
</trkpt>
<trkpt lat="31.1574900" lon="35.2105500">
<ele>192.389771</ele>
<time>2009-12-04T08:16:18.002Z</time>
</trkpt>
<trkpt lat="31.1572200" lon="35.2104000">
<ele>192.389771</ele>
<time>2009-12-04T08:16:27.998Z</time>
</trkpt>
<trkpt lat="31.1571400" lon="35.2103400">
<ele>192.389771</ele>
<time>2009-12-04T08:16:31.999Z</time>
</trkpt>
<trkpt lat="31.1569100" lon="35.2099400">
<ele>193.852798</ele>
<time>2009-12-04T08:18:18.003Z</time>
</trkpt>
<trkpt lat="31.1566400" lon="35.2094100">
<ele>194.797668</ele>
<time>2009-12-04T08:18:34.004Z</time>
</trkpt>
<trkpt lat="31.1562500" lon="35.2089900">
<ele>195.285370</ele>
<time>2009-12-04T08:18:49.003Z</time>
</trkpt>
<trkpt lat="31.1557000" lon="35.2086200">
<ele>191.932556</ele>
<time>2009-12-04T08:19:00.002Z</time>
</trkpt>
<trkpt lat="31.1554000" lon="35.2084100">
<ele>188.549271</ele>
<time>2009-12-04T08:19:04.996Z</time>
</trkpt>
<trkpt lat="31.1552300" lon="35.2082500">
<ele>185.684158</ele>
<time>2009-12-04T08:19:08.003Z</time>
</trkpt>
<trkpt lat="31.1550100" lon="35.2080800">
<ele>185.684158</ele>
<time>2009-12-04T08:19:12.003Z</time>
</trkpt>
<trkpt lat="31.1542100" lon="35.2075400">
<ele>182.300873</ele>
<time>2009-12-04T08:19:27.002Z</time>
</trkpt>
<trkpt lat="31.1536100" lon="35.2070900">
<ele>181.356003</ele>
<time>2009-12-04T08:19:39.996Z</time>
</trkpt>
<trkpt lat="31.1531100" lon="35.2071300">
<ele>181.356003</ele>
<time>2009-12-04T08:19:48.999Z</time>
</trkpt>
<trkpt lat="31.1530300" lon="35.2072200">
<ele>180.380630</ele>
<time>2009-12-04T08:19:51.004Z</time>
</trkpt>
<trkpt lat="31.1525100" lon="35.2080800">
<ele>178.460403</ele>
<time>2009-12-04T08:20:05.001Z</time>
</trkpt>
<trkpt lat="31.1522500" lon="35.2083600">
<ele>177.972733</ele>
<time>2009-12-04T08:20:10.997Z</time>
</trkpt>
<trkpt lat="31.1515900" lon="35.2093600">
<ele>175.564804</ele>
<time>2009-12-04T08:20:26.998Z</time>
</trkpt>
<trkpt lat="31.1504900" lon="35.2107400">
<ele>172.699677</ele>
<time>2009-12-04T08:20:47.000Z</time>
</trkpt>
<trkpt lat="31.1495800" lon="35.2120200">
<ele>169.316406</ele>
<time>2009-12-04T08:21:04.003Z</time>
</trkpt>
<trkpt lat="31.1488000" lon="35.2131200">
<ele>166.938965</ele>
<time>2009-12-04T08:21:20.998Z</time>
</trkpt>
<trkpt lat="31.1487100" lon="35.2133900">
<ele>166.938965</ele>
<time>2009-12-04T08:21:24.998Z</time>
</trkpt>
<trkpt lat="31.1485800" lon="35.2143700">
<ele>164.988235</ele>
<time>2009-12-04T08:21:39.004Z</time>
</trkpt>
<trkpt lat="31.1484200" lon="35.2154000">
<ele>162.123123</ele>
<time>2009-12-04T08:21:50.996Z</time>
</trkpt>
<trkpt lat="31.1482000" lon="35.2149500">
<ele>160.202866</ele>
<time>2009-12-04T08:30:38.002Z</time>
</trkpt>
<trkpt lat="31.1481900" lon="35.2147800">
<ele>161.147766</ele>
<time>2009-12-04T08:30:45.000Z</time>
</trkpt>
<trkpt lat="31.1482600" lon="35.2145300">
<ele>162.123123</ele>
<time>2009-12-04T08:30:57.001Z</time>
</trkpt>
<trkpt lat="31.1484200" lon="35.2142200">
<ele>162.610794</ele>
<time>2009-12-04T08:31:17.003Z</time>
</trkpt>
<trkpt lat="31.1484200" lon="35.2140500">
<ele>161.635437</ele>
<time>2009-12-04T08:31:26.999Z</time>
</trkpt>
<trkpt lat="31.1481600" lon="35.2136600">
<ele>163.067993</ele>
<time>2009-12-04T08:31:48.003Z</time>
</trkpt>
<trkpt lat="31.1479800" lon="35.2132700">
<ele>164.043365</ele>
<time>2009-12-04T08:32:27.997Z</time>
</trkpt>
<trkpt lat="31.1479300" lon="35.2131100">
<ele>164.531036</ele>
<time>2009-12-04T08:32:46.003Z</time>
</trkpt>
<trkpt lat="31.1478200" lon="35.2127400">
<ele>164.531036</ele>
<time>2009-12-04T08:33:25.004Z</time>
</trkpt>
<trkpt lat="31.1477500" lon="35.2125100">
<ele>164.531036</ele>
<time>2009-12-04T08:33:36.996Z</time>
</trkpt>
<trkpt lat="31.1475540" lon="35.2121130">
<ele>164.988235</ele>
<time>2009-12-04T08:34:11.004Z</time>
</trkpt>
<trkpt lat="31.1475000" lon="35.2115000">
<ele>163.555679</ele>
<time>2009-12-04T08:36:33.002Z</time>
</trkpt>
<trkpt lat="31.1476000" lon="35.2121100">
<ele>163.067993</ele>
<time>2009-12-04T08:44:33.999Z</time>
</trkpt>
<trkpt lat="31.1477200" lon="35.2125200">
<ele>162.123123</ele>
<time>2009-12-04T08:45:11.998Z</time>
</trkpt>
<trkpt lat="31.1476500" lon="35.2127300">
<ele>161.635437</ele>
<time>2009-12-04T08:45:30.997Z</time>
</trkpt>
<trkpt lat="31.1477300" lon="35.2131200">
<ele>161.635437</ele>
<time>2009-12-04T08:46:13.999Z</time>
</trkpt>
<trkpt lat="31.1478700" lon="35.2137000">
<ele>162.123123</ele>
<time>2009-12-04T08:47:06.996Z</time>
</trkpt>
<trkpt lat="31.1479800" lon="35.2140900">
<ele>161.147766</ele>
<time>2009-12-04T08:47:48.002Z</time>
</trkpt>
<trkpt lat="31.1484900" lon="35.2149000">
<ele>160.202866</ele>
<time>2009-12-04T08:49:20.001Z</time>
</trkpt>
<trkpt lat="31.1484200" lon="35.2153000">
<ele>159.715195</ele>
<time>2009-12-04T08:49:40.002Z</time>
</trkpt>
<trkpt lat="31.1483100" lon="35.2161400">
<ele>159.227524</ele>
<time>2009-12-04T08:49:56.004Z</time>
</trkpt>
<trkpt lat="31.1482900" lon="35.2168800">
<ele>156.362396</ele>
<time>2009-12-04T08:50:04.004Z</time>
</trkpt>
<trkpt lat="31.1482900" lon="35.2171900">
<ele>154.899368</ele>
<time>2009-12-04T08:50:07.002Z</time>
</trkpt>
<trkpt lat="31.1482400" lon="35.2180700">
<ele>155.874725</ele>
<time>2009-12-04T08:50:16.999Z</time>
</trkpt>
<trkpt lat="31.1481600" lon="35.2183700">
<ele>154.899368</ele>
<time>2009-12-04T08:50:20.999Z</time>
</trkpt>
<trkpt lat="31.1475400" lon="35.2192300">
<ele>152.979111</ele>
<time>2009-12-04T08:50:34.996Z</time>
</trkpt>
<trkpt lat="31.1471300" lon="35.2198100">
<ele>153.954483</ele>
<time>2009-12-04T08:50:46.997Z</time>
</trkpt>
<trkpt lat="31.1468400" lon="35.2202900">
<ele>152.491440</ele>
<time>2009-12-04T08:51:00.000Z</time>
</trkpt>
<trkpt lat="31.1469500" lon="35.2206100">
<ele>152.034241</ele>
<time>2009-12-04T08:51:12.001Z</time>
</trkpt>
<trkpt lat="31.1472200" lon="35.2208200">
<ele>152.034241</ele>
<time>2009-12-04T08:51:24.002Z</time>
</trkpt>
<trkpt lat="31.1478000" lon="35.2212600">
<ele>152.491440</ele>
<time>2009-12-04T08:51:41.999Z</time>
</trkpt>
<trkpt lat="31.1486300" lon="35.2218600">
<ele>152.034241</ele>
<time>2009-12-04T08:52:02.001Z</time>
</trkpt>
<trkpt lat="31.1495200" lon="35.2224900">
<ele>152.491440</ele>
<time>2009-12-04T08:52:22.996Z</time>
</trkpt>
<trkpt lat="31.1498600" lon="35.2227500">
<ele>152.034241</ele>
<time>2009-12-04T08:52:30.996Z</time>
</trkpt>
<trkpt lat="31.1504600" lon="35.2235300">
<ele>152.491440</ele>
<time>2009-12-04T08:52:49.002Z</time>
</trkpt>
<trkpt lat="31.1506100" lon="35.2239500">
<ele>152.034241</ele>
<time>2009-12-04T08:52:57.003Z</time>
</trkpt>
<trkpt lat="31.1506400" lon="35.2241800">
<ele>151.546570</ele>
<time>2009-12-04T08:53:01.003Z</time>
</trkpt>
<trkpt lat="31.1508000" lon="35.2253200">
<ele>151.546570</ele>
<time>2009-12-04T08:53:19.000Z</time>
</trkpt>
<trkpt lat="31.1509300" lon="35.2263100">
<ele>151.546570</ele>
<time>2009-12-04T08:53:36.004Z</time>
</trkpt>
<trkpt lat="31.1510800" lon="35.2271500">
<ele>149.626312</ele>
<time>2009-12-04T08:53:48.998Z</time>
</trkpt>
<trkpt lat="31.1512100" lon="35.2281100">
<ele>150.113998</ele>
<time>2009-12-04T08:54:03.997Z</time>
</trkpt>
<trkpt lat="31.1513500" lon="35.2290600">
<ele>149.138641</ele>
<time>2009-12-04T08:54:22.003Z</time>
</trkpt>
<trkpt lat="31.1513800" lon="35.2292200">
<ele>148.193756</ele>
<time>2009-12-04T08:54:25.001Z</time>
</trkpt>
<trkpt lat="31.1515400" lon="35.2299600">
<ele>147.706085</ele>
<time>2009-12-04T08:54:37.996Z</time>
</trkpt>
<trkpt lat="31.1515600" lon="35.2303900">
<ele>146.730713</ele>
<time>2009-12-04T08:54:49.997Z</time>
</trkpt>
<trkpt lat="31.1514200" lon="35.2305100">
<ele>145.785843</ele>
<time>2009-12-04T08:55:43.003Z</time>
</trkpt>
<trkpt lat="31.1510500" lon="35.2306900">
<ele>140.970001</ele>
<time>2009-12-04T08:55:48.999Z</time>
</trkpt>
<trkpt lat="31.1509600" lon="35.2308100">
<ele>140.970001</ele>
<time>2009-12-04T08:55:51.004Z</time>
</trkpt>
<trkpt lat="31.1506400" lon="35.2315100">
<ele>138.562088</ele>
<time>2009-12-04T08:55:59.998Z</time>
</trkpt>
<trkpt lat="31.1503600" lon="35.2320900">
<ele>136.641830</ele>
<time>2009-12-04T08:56:06.996Z</time>
</trkpt>
<trkpt lat="31.1502900" lon="35.2324500">
<ele>136.154160</ele>
<time>2009-12-04T08:56:10.997Z</time>
</trkpt>
<trkpt lat="31.1504000" lon="35.2335200">
<ele>134.233917</ele>
<time>2009-12-04T08:56:22.998Z</time>
</trkpt>
<trkpt lat="31.1502900" lon="35.2340900">
<ele>132.801361</ele>
<time>2009-12-04T08:56:29.996Z</time>
</trkpt>
<trkpt lat="31.1498700" lon="35.2346900">
<ele>131.368805</ele>
<time>2009-12-04T08:56:38.999Z</time>
</trkpt>
<trkpt lat="31.1498200" lon="35.2353600">
<ele>130.393433</ele>
<time>2009-12-04T08:56:47.000Z</time>
</trkpt>
<trkpt lat="31.1503100" lon="35.2364100">
<ele>129.448563</ele>
<time>2009-12-04T08:57:01.999Z</time>
</trkpt>
<trkpt lat="31.1506000" lon="35.2373300">
<ele>127.985519</ele>
<time>2009-12-04T08:57:16.004Z</time>
</trkpt>
<trkpt lat="31.1507600" lon="35.2379500">
<ele>127.040634</ele>
<time>2009-12-04T08:57:24.998Z</time>
</trkpt>
<trkpt lat="31.1512000" lon="35.2387000">
<ele>128.960876</ele>
<time>2009-12-04T08:57:39.997Z</time>
</trkpt>
<trkpt lat="31.1512700" lon="35.2390800">
<ele>127.040634</ele>
<time>2009-12-04T08:58:53.999Z</time>
</trkpt>
<trkpt lat="31.1511600" lon="35.2398400">
<ele>127.985519</ele>
<time>2009-12-04T08:59:06.000Z</time>
</trkpt>
<trkpt lat="31.1507700" lon="35.2407700">
<ele>126.065285</ele>
<time>2009-12-04T08:59:20.999Z</time>
</trkpt>
<trkpt lat="31.1507700" lon="35.2412800">
<ele>124.632721</ele>
<time>2009-12-04T08:59:27.004Z</time>
</trkpt>
<trkpt lat="31.1510100" lon="35.2422200">
<ele>126.552963</ele>
<time>2009-12-04T08:59:39.998Z</time>
</trkpt>
<trkpt lat="31.1514500" lon="35.2427500">
<ele>129.448563</ele>
<time>2009-12-04T08:59:54.004Z</time>
</trkpt>
<trkpt lat="31.1518200" lon="35.2432600">
<ele>129.905762</ele>
<time>2009-12-04T09:00:10.999Z</time>
</trkpt>
<trkpt lat="31.1520200" lon="35.2438300">
<ele>132.313675</ele>
<time>2009-12-04T09:00:27.000Z</time>
</trkpt>
<trkpt lat="31.1521300" lon="35.2443500">
<ele>134.721603</ele>
<time>2009-12-04T09:00:44.004Z</time>
</trkpt>
<trkpt lat="31.1523700" lon="35.2449600">
<ele>134.721603</ele>
<time>2009-12-04T09:01:00.998Z</time>
</trkpt>
<trkpt lat="31.1526100" lon="35.2449400">
<ele>137.129517</ele>
<time>2009-12-04T09:01:11.997Z</time>
</trkpt>
<trkpt lat="31.1529100" lon="35.2447400">
<ele>138.562088</ele>
<time>2009-12-04T09:01:27.998Z</time>
</trkpt>
<trkpt lat="31.1532000" lon="35.2445700">
<ele>139.537430</ele>
<time>2009-12-04T09:01:42.004Z</time>
</trkpt>
<trkpt lat="31.1537100" lon="35.2444600">
<ele>140.482315</ele>
<time>2009-12-04T09:02:05.004Z</time>
</trkpt>
<trkpt lat="31.1540400" lon="35.2444800">
<ele>142.890244</ele>
<time>2009-12-04T09:02:24.003Z</time>
</trkpt>
<trkpt lat="31.1543000" lon="35.2446000">
<ele>145.785843</ele>
<time>2009-12-04T09:02:42.000Z</time>
</trkpt>
<trkpt lat="31.1544600" lon="35.2450100">
<ele>143.865601</ele>
<time>2009-12-04T09:02:59.004Z</time>
</trkpt>
<trkpt lat="31.1545500" lon="35.2453600">
<ele>141.945358</ele>
<time>2009-12-04T09:03:05.000Z</time>
</trkpt>
<trkpt lat="31.1545900" lon="35.2455000">
<ele>140.970001</ele>
<time>2009-12-04T09:03:07.004Z</time>
</trkpt>
<trkpt lat="31.1548500" lon="35.2461200">
<ele>138.074402</ele>
<time>2009-12-04T09:03:14.996Z</time>
</trkpt>
<trkpt lat="31.1550800" lon="35.2467000">
<ele>134.721603</ele>
<time>2009-12-04T09:03:22.003Z</time>
</trkpt>
<trkpt lat="31.1550800" lon="35.2475700">
<ele>132.801361</ele>
<time>2009-12-04T09:03:32.000Z</time>
</trkpt>
<trkpt lat="31.1550200" lon="35.2478800">
<ele>132.313675</ele>
<time>2009-12-04T09:03:36.000Z</time>
</trkpt>
<trkpt lat="31.1548500" lon="35.2483700">
<ele>129.448563</ele>
<time>2009-12-04T09:03:42.998Z</time>
</trkpt>
<trkpt lat="31.1547100" lon="35.2486500">
<ele>127.497833</ele>
<time>2009-12-04T09:03:46.999Z</time>
</trkpt>
<trkpt lat="31.1546600" lon="35.2488400">
<ele>126.065285</ele>
<time>2009-12-04T09:03:49.997Z</time>
</trkpt>
<trkpt lat="31.1546800" lon="35.2490500">
<ele>123.200165</ele>
<time>2009-12-04T09:03:54.999Z</time>
</trkpt>
<trkpt lat="31.1544500" lon="35.2493200">
<ele>122.224800</ele>
<time>2009-12-04T09:04:09.998Z</time>
</trkpt>
<trkpt lat="31.1541900" lon="35.2494400">
<ele>121.737122</ele>
<time>2009-12-04T09:04:24.997Z</time>
</trkpt>
<trkpt lat="31.1537900" lon="35.2495200">
<ele>120.304565</ele>
<time>2009-12-04T09:04:43.997Z</time>
</trkpt>
<trkpt lat="31.1534000" lon="35.2495800">
<ele>120.304565</ele>
<time>2009-12-04T09:05:02.003Z</time>
</trkpt>
<trkpt lat="31.1532200" lon="35.2497500">
<ele>122.224800</ele>
<time>2009-12-04T09:05:14.997Z</time>
</trkpt>
<trkpt lat="31.1529800" lon="35.2498900">
<ele>123.200165</ele>
<time>2009-12-04T09:05:30.998Z</time>
</trkpt>
<trkpt lat="31.1528800" lon="35.2498700">
<ele>125.577599</ele>
<time>2009-12-04T09:05:37.997Z</time>
</trkpt>
<trkpt lat="31.1526900" lon="35.2499300">
<ele>129.905762</ele>
<time>2009-12-04T09:05:52.996Z</time>
</trkpt>
<trkpt lat="31.1524700" lon="35.2501700">
<ele>129.905762</ele>
<time>2009-12-04T09:08:08.998Z</time>
</trkpt>
<trkpt lat="31.1524200" lon="35.2502700">
<ele>129.448563</ele>
<time>2009-12-04T09:08:11.003Z</time>
</trkpt>
<trkpt lat="31.1522600" lon="35.2504100">
<ele>129.905762</ele>
<time>2009-12-04T09:08:16.999Z</time>
</trkpt>
<trkpt lat="31.1521000" lon="35.2505000">
<ele>132.801361</ele>
<time>2009-12-04T09:08:26.002Z</time>
</trkpt>
<trkpt lat="31.1519200" lon="35.2506800">
<ele>132.313675</ele>
<time>2009-12-04T09:08:34.996Z</time>
</trkpt>
<trkpt lat="31.1518400" lon="35.2508600">
<ele>132.313675</ele>
<time>2009-12-04T09:08:38.996Z</time>
</trkpt>
<trkpt lat="31.1517200" lon="35.2510300">
<ele>133.289032</ele>
<time>2009-12-04T09:08:43.999Z</time>
</trkpt>
<trkpt lat="31.1515100" lon="35.2515900">
<ele>134.721603</ele>
<time>2009-12-04T09:09:00.000Z</time>
</trkpt>
<trkpt lat="31.1514900" lon="35.2519200">
<ele>133.746231</ele>
<time>2009-12-04T09:09:05.996Z</time>
</trkpt>
<trkpt lat="31.1514700" lon="35.2520100">
<ele>134.233917</ele>
<time>2009-12-04T09:09:08.001Z</time>
</trkpt>
<trkpt lat="31.1513900" lon="35.2521500">
<ele>132.801361</ele>
<time>2009-12-04T09:09:10.999Z</time>
</trkpt>
<trkpt lat="31.1512900" lon="35.2522800">
<ele>134.721603</ele>
<time>2009-12-04T09:09:14.999Z</time>
</trkpt>
<trkpt lat="31.1512000" lon="35.2525000">
<ele>138.074402</ele>
<time>2009-12-04T09:09:25.998Z</time>
</trkpt>
<trkpt lat="31.1510400" lon="35.2528700">
<ele>139.537430</ele>
<time>2009-12-04T09:09:47.002Z</time>
</trkpt>
<trkpt lat="31.1508100" lon="35.2532000">
<ele>140.482315</ele>
<time>2009-12-04T09:10:03.996Z</time>
</trkpt>
<trkpt lat="31.1506000" lon="35.2533600">
<ele>141.945358</ele>
<time>2009-12-04T09:10:15.004Z</time>
</trkpt>
<trkpt lat="31.1504700" lon="35.2537400">
<ele>141.945358</ele>
<time>2009-12-04T09:10:27.998Z</time>
</trkpt>
<trkpt lat="31.1502200" lon="35.2538400">
<ele>144.322800</ele>
<time>2009-12-04T09:10:38.004Z</time>
</trkpt>
<trkpt lat="31.1499100" lon="35.2539400">
<ele>147.218399</ele>
<time>2009-12-04T09:10:54.998Z</time>
</trkpt>
<trkpt lat="31.1496200" lon="35.2542300">
<ele>147.218399</ele>
<time>2009-12-04T09:11:13.998Z</time>
</trkpt>
<trkpt lat="31.1496500" lon="35.2545900">
<ele>145.298157</ele>
<time>2009-12-04T09:11:20.003Z</time>
</trkpt>
<trkpt lat="31.1495100" lon="35.2548300">
<ele>144.810486</ele>
<time>2009-12-04T09:11:24.996Z</time>
</trkpt>
<trkpt lat="31.1491500" lon="35.2550800">
<ele>146.730713</ele>
<time>2009-12-04T09:11:40.998Z</time>
</trkpt>
<trkpt lat="31.1489100" lon="35.2553800">
<ele>148.193756</ele>
<time>2009-12-04T09:11:56.999Z</time>
</trkpt>
<trkpt lat="31.1486300" lon="35.2558700">
<ele>147.218399</ele>
<time>2009-12-04T09:12:14.996Z</time>
</trkpt>
<trkpt lat="31.1483600" lon="35.2560900">
<ele>149.138641</ele>
<time>2009-12-04T09:12:30.004Z</time>
</trkpt>
<trkpt lat="31.1481400" lon="35.2561900">
<ele>150.113998</ele>
<time>2009-12-04T09:12:42.998Z</time>
</trkpt>
<trkpt lat="31.1479100" lon="35.2564700">
<ele>152.491440</ele>
<time>2009-12-04T09:13:01.004Z</time>
</trkpt>
<trkpt lat="31.1477500" lon="35.2567400">
<ele>150.571198</ele>
<time>2009-12-04T09:13:11.001Z</time>
</trkpt>
<trkpt lat="31.1477400" lon="35.2569500">
<ele>148.193756</ele>
<time>2009-12-04T09:13:17.999Z</time>
</trkpt>
<trkpt lat="31.1474000" lon="35.2571800">
<ele>149.626312</ele>
<time>2009-12-04T09:13:44.999Z</time>
</trkpt>
<trkpt lat="31.1473600" lon="35.2572500">
<ele>150.113998</ele>
<time>2009-12-04T09:14:49.998Z</time>
</trkpt>
<trkpt lat="31.1473000" lon="35.2574300">
<ele>149.138641</ele>
<time>2009-12-04T09:14:53.998Z</time>
</trkpt>
<trkpt lat="31.1472500" lon="35.2574800">
<ele>150.571198</ele>
<time>2009-12-04T09:14:56.003Z</time>
</trkpt>
<trkpt lat="31.1470900" lon="35.2578600">
<ele>150.113998</ele>
<time>2009-12-04T09:15:07.001Z</time>
</trkpt>
<trkpt lat="31.1469400" lon="35.2580800">
<ele>152.034241</ele>
<time>2009-12-04T09:15:19.002Z</time>
</trkpt>
<trkpt lat="31.1468500" lon="35.2585400">
<ele>153.954483</ele>
<time>2009-12-04T09:15:38.002Z</time>
</trkpt>
<trkpt lat="31.1467100" lon="35.2591000">
<ele>154.442169</ele>
<time>2009-12-04T09:15:54.996Z</time>
</trkpt>
<trkpt lat="31.1466200" lon="35.2595600">
<ele>153.466797</ele>
<time>2009-12-04T09:16:06.997Z</time>
</trkpt>
<trkpt lat="31.1465700" lon="35.2596900">
<ele>153.466797</ele>
<time>2009-12-04T09:16:10.004Z</time>
</trkpt>
<trkpt lat="31.1465200" lon="35.2598700">
<ele>153.466797</ele>
<time>2009-12-04T09:16:13.996Z</time>
</trkpt>
<trkpt lat="31.1462500" lon="35.2600800">
<ele>153.954483</ele>
<time>2009-12-04T09:16:21.996Z</time>
</trkpt>
<trkpt lat="31.1459200" lon="35.2602400">
<ele>155.387039</ele>
<time>2009-12-04T09:16:37.004Z</time>
</trkpt>
<trkpt lat="31.1459600" lon="35.2603300">
<ele>155.387039</ele>
<time>2009-12-04T09:19:54.998Z</time>
</trkpt>
<trkpt lat="31.1462400" lon="35.2603700">
<ele>153.466797</ele>
<time>2009-12-04T09:20:04.001Z</time>
</trkpt>
<trkpt lat="31.1463600" lon="35.2604300">
<ele>152.979111</ele>
<time>2009-12-04T09:20:06.999Z</time>
</trkpt>
<trkpt lat="31.1463500" lon="35.2608100">
<ele>151.546570</ele>
<time>2009-12-04T09:20:15.000Z</time>
</trkpt>
<trkpt lat="31.1463100" lon="35.2609100">
<ele>151.058884</ele>
<time>2009-12-04T09:20:16.996Z</time>
</trkpt>
<trkpt lat="31.1459100" lon="35.2616900">
<ele>148.650970</ele>
<time>2009-12-04T09:20:32.004Z</time>
</trkpt>
<trkpt lat="31.1458100" lon="35.2620100">
<ele>147.706085</ele>
<time>2009-12-04T09:20:36.997Z</time>
</trkpt>
<trkpt lat="31.1457300" lon="35.2621800">
<ele>147.218399</ele>
<time>2009-12-04T09:20:40.004Z</time>
</trkpt>
<trkpt lat="31.1455500" lon="35.2626200">
<ele>145.298157</ele>
<time>2009-12-04T09:20:47.003Z</time>
</trkpt>
<trkpt lat="31.1454900" lon="35.2629400">
<ele>146.730713</ele>
<time>2009-12-04T09:20:51.996Z</time>
</trkpt>
<trkpt lat="31.1455500" lon="35.2631100">
<ele>145.785843</ele>
<time>2009-12-04T09:20:55.997Z</time>
</trkpt>
<trkpt lat="31.1455900" lon="35.2632400">
<ele>145.298157</ele>
<time>2009-12-04T09:20:59.004Z</time>
</trkpt>
<trkpt lat="31.1455500" lon="35.2633800">
<ele>146.243042</ele>
<time>2009-12-04T09:21:03.997Z</time>
</trkpt>
<trkpt lat="31.1454800" lon="35.2638400">
<ele>147.218399</ele>
<time>2009-12-04T09:21:18.003Z</time>
</trkpt>
<trkpt lat="31.1454600" lon="35.2639700">
<ele>147.218399</ele>
<time>2009-12-04T09:21:21.001Z</time>
</trkpt>
<trkpt lat="31.1453300" lon="35.2643200">
<ele>149.138641</ele>
<time>2009-12-04T09:21:33.002Z</time>
</trkpt>
<trkpt lat="31.1452200" lon="35.2647500">
<ele>150.113998</ele>
<time>2009-12-04T09:21:49.003Z</time>
</trkpt>
<trkpt lat="31.1451200" lon="35.2652400">
<ele>150.113998</ele>
<time>2009-12-04T09:22:04.002Z</time>
</trkpt>
<trkpt lat="31.1450400" lon="35.2656300">
<ele>150.571198</ele>
<time>2009-12-04T09:22:16.997Z</time>
</trkpt>
<trkpt lat="31.1449400" lon="35.2659800">
<ele>151.546570</ele>
<time>2009-12-04T09:22:30.000Z</time>
</trkpt>
<trkpt lat="31.1448600" lon="35.2661300">
<ele>153.466797</ele>
<time>2009-12-04T09:22:36.998Z</time>
</trkpt>
<trkpt lat="31.1447700" lon="35.2663400">
<ele>152.979111</ele>
<time>2009-12-04T09:22:46.001Z</time>
</trkpt>
<trkpt lat="31.1446800" lon="35.2665100">
<ele>151.058884</ele>
<time>2009-12-04T09:22:50.002Z</time>
</trkpt>
<trkpt lat="31.1445100" lon="35.2669000">
<ele>150.113998</ele>
<time>2009-12-04T09:22:58.002Z</time>
</trkpt>
<trkpt lat="31.1444600" lon="35.2669900">
<ele>149.626312</ele>
<time>2009-12-04T09:22:59.998Z</time>
</trkpt>
<trkpt lat="31.1444300" lon="35.2671700">
<ele>150.113998</ele>
<time>2009-12-04T09:23:03.998Z</time>
</trkpt>
<trkpt lat="31.1444300" lon="35.2675900">
<ele>150.113998</ele>
<time>2009-12-04T09:23:17.002Z</time>
</trkpt>
<trkpt lat="31.1443000" lon="35.2680000">
<ele>149.626312</ele>
<time>2009-12-04T09:23:29.996Z</time>
</trkpt>
<trkpt lat="31.1442400" lon="35.2681400">
<ele>152.979111</ele>
<time>2009-12-04T09:23:38.999Z</time>
</trkpt>
<trkpt lat="31.1442300" lon="35.2685600">
<ele>155.387039</ele>
<time>2009-12-04T09:23:57.998Z</time>
</trkpt>
<trkpt lat="31.1442600" lon="35.2688600">
<ele>152.491440</ele>
<time>2009-12-04T09:24:04.003Z</time>
</trkpt>
<trkpt lat="31.1442600" lon="35.2690900">
<ele>152.034241</ele>
<time>2009-12-04T09:24:08.004Z</time>
</trkpt>
<trkpt lat="31.1444000" lon="35.2696700">
<ele>152.034241</ele>
<time>2009-12-04T09:24:22.000Z</time>
</trkpt>
<trkpt lat="31.1446200" lon="35.2702400">
<ele>155.387039</ele>
<time>2009-12-04T09:24:38.002Z</time>
</trkpt>
<trkpt lat="31.1447500" lon="35.2709000">
<ele>157.307266</ele>
<time>2009-12-04T09:24:57.001Z</time>
</trkpt>
<trkpt lat="31.1448700" lon="35.2714100">
<ele>158.282639</ele>
<time>2009-12-04T09:25:12.000Z</time>
</trkpt>
<trkpt lat="31.1449800" lon="35.2716500">
<ele>157.794968</ele>
<time>2009-12-04T09:25:21.003Z</time>
</trkpt>
<trkpt lat="31.1448900" lon="35.2721300">
<ele>159.715195</ele>
<time>2009-12-04T09:25:36.002Z</time>
</trkpt>
<trkpt lat="31.1448500" lon="35.2725100">
<ele>162.610794</ele>
<time>2009-12-04T09:25:52.003Z</time>
</trkpt>
<trkpt lat="31.1447700" lon="35.2728500">
<ele>165.475922</ele>
<time>2009-12-04T09:26:07.996Z</time>
</trkpt>
<trkpt lat="31.1446700" lon="35.2731400">
<ele>165.475922</ele>
<time>2009-12-04T09:26:22.001Z</time>
</trkpt>
<trkpt lat="31.1445300" lon="35.2735300">
<ele>166.451279</ele>
<time>2009-12-04T09:26:38.003Z</time>
</trkpt>
<trkpt lat="31.1443500" lon="35.2739400">
<ele>165.963593</ele>
<time>2009-12-04T09:26:54.997Z</time>
</trkpt>
<trkpt lat="31.1438600" lon="35.2743800">
<ele>165.963593</ele>
<time>2009-12-04T09:27:14.999Z</time>
</trkpt>
<trkpt lat="31.1433800" lon="35.2747900">
<ele>165.963593</ele>
<time>2009-12-04T09:27:33.998Z</time>
</trkpt>
<trkpt lat="31.1429000" lon="35.2751600">
<ele>165.475922</ele>
<time>2009-12-04T09:27:48.997Z</time>
</trkpt>
<trkpt lat="31.1424400" lon="35.2754700">
<ele>166.938965</ele>
<time>2009-12-04T09:28:06.001Z</time>
</trkpt>
<trkpt lat="31.1420400" lon="35.2759000">
<ele>166.938965</ele>
<time>2009-12-04T09:28:21.000Z</time>
</trkpt>
<trkpt lat="31.1417100" lon="35.2764500">
<ele>165.475922</ele>
<time>2009-12-04T09:28:35.999Z</time>
</trkpt>
<trkpt lat="31.1415800" lon="35.2767700">
<ele>164.988235</ele>
<time>2009-12-04T09:28:42.997Z</time>
</trkpt>
<trkpt lat="31.1416200" lon="35.2770000">
<ele>162.610794</ele>
<time>2009-12-04T09:28:46.998Z</time>
</trkpt>
<trkpt lat="31.1415900" lon="35.2773400">
<ele>160.202866</ele>
<time>2009-12-04T09:28:53.003Z</time>
</trkpt>
<trkpt lat="31.1415700" lon="35.2775000">
<ele>161.147766</ele>
<time>2009-12-04T09:28:54.998Z</time>
</trkpt>
<trkpt lat="31.1415700" lon="35.2781400">
<ele>162.610794</ele>
<time>2009-12-04T09:29:06.999Z</time>
</trkpt>
<trkpt lat="31.1414600" lon="35.2787000">
<ele>163.555679</ele>
<time>2009-12-04T09:29:20.003Z</time>
</trkpt>
<trkpt lat="31.1413100" lon="35.2788400">
<ele>163.555679</ele>
<time>2009-12-04T09:29:32.004Z</time>
</trkpt>
<trkpt lat="31.1414400" lon="35.2789400">
<ele>164.043365</ele>
<time>2009-12-04T09:39:49.003Z</time>
</trkpt>
<trkpt lat="31.1416100" lon="35.2791900">
<ele>163.067993</ele>
<time>2009-12-04T09:39:57.004Z</time>
</trkpt>
<trkpt lat="31.1416200" lon="35.2795500">
<ele>160.202866</ele>
<time>2009-12-04T09:40:03.000Z</time>
</trkpt>
<trkpt lat="31.1415200" lon="35.2797100">
<ele>158.739838</ele>
<time>2009-12-04T09:40:05.998Z</time>
</trkpt>
<trkpt lat="31.1414300" lon="35.2798300">
<ele>156.362396</ele>
<time>2009-12-04T09:40:08.003Z</time>
</trkpt>
<trkpt lat="31.1414700" lon="35.2801100">
<ele>156.362396</ele>
<time>2009-12-04T09:40:12.996Z</time>
</trkpt>
<trkpt lat="31.1416000" lon="35.2802600">
<ele>155.387039</ele>
<time>2009-12-04T09:40:16.003Z</time>
</trkpt>
<trkpt lat="31.1419600" lon="35.2804700">
<ele>153.466797</ele>
<time>2009-12-04T09:40:21.999Z</time>
</trkpt>
<trkpt lat="31.1422500" lon="35.2807000">
<ele>152.034241</ele>
<time>2009-12-04T09:40:28.998Z</time>
</trkpt>
<trkpt lat="31.1424300" lon="35.2807700">
<ele>148.193756</ele>
<time>2009-12-04T09:40:35.003Z</time>
</trkpt>
<trkpt lat="31.1428400" lon="35.2810700">
<ele>145.785843</ele>
<time>2009-12-04T09:40:42.001Z</time>
</trkpt>
<trkpt lat="31.1429900" lon="35.2811500">
<ele>144.322800</ele>
<time>2009-12-04T09:40:44.999Z</time>
</trkpt>
<trkpt lat="31.1432100" lon="35.2813300">
<ele>139.994629</ele>
<time>2009-12-04T09:40:48.999Z</time>
</trkpt>
<trkpt lat="31.1434100" lon="35.2816200">
<ele>138.074402</ele>
<time>2009-12-04T09:40:53.000Z</time>
</trkpt>
<trkpt lat="31.1434900" lon="35.2817800">
<ele>136.641830</ele>
<time>2009-12-04T09:40:55.004Z</time>
</trkpt>
<trkpt lat="31.1437900" lon="35.2822400">
<ele>135.209274</ele>
<time>2009-12-04T09:41:02.003Z</time>
</trkpt>
<trkpt lat="31.1439000" lon="35.2825500">
<ele>133.746231</ele>
<time>2009-12-04T09:41:06.003Z</time>
</trkpt>
<trkpt lat="31.1439600" lon="35.2827100">
<ele>132.801361</ele>
<time>2009-12-04T09:41:07.999Z</time>
</trkpt>
<trkpt lat="31.1440500" lon="35.2828300">
<ele>132.313675</ele>
<time>2009-12-04T09:41:10.003Z</time>
</trkpt>
<trkpt lat="31.1442200" lon="35.2831600">
<ele>130.881119</ele>
<time>2009-12-04T09:41:14.997Z</time>
</trkpt>
<trkpt lat="31.1442400" lon="35.2838600">
<ele>128.473206</ele>
<time>2009-12-04T09:41:25.002Z</time>
</trkpt>
<trkpt lat="31.1442500" lon="35.2843100">
<ele>130.881119</ele>
<time>2009-12-04T09:41:37.003Z</time>
</trkpt>
<trkpt lat="31.1441500" lon="35.2847000">
<ele>129.905762</ele>
<time>2009-12-04T09:41:49.004Z</time>
</trkpt>
<trkpt lat="31.1441600" lon="35.2850400">
<ele>130.393433</ele>
<time>2009-12-04T09:41:56.003Z</time>
</trkpt>
<trkpt lat="31.1439600" lon="35.2853800">
<ele>129.448563</ele>
<time>2009-12-04T09:42:07.001Z</time>
</trkpt>
<trkpt lat="31.1439500" lon="35.2854800">
<ele>128.473206</ele>
<time>2009-12-04T09:42:08.997Z</time>
</trkpt>
<trkpt lat="31.1439300" lon="35.2857300">
<ele>127.497833</ele>
<time>2009-12-04T09:42:12.997Z</time>
</trkpt>
<trkpt lat="31.1438400" lon="35.2859700">
<ele>127.040634</ele>
<time>2009-12-04T09:42:16.998Z</time>
</trkpt>
<trkpt lat="31.1436200" lon="35.2861600">
<ele>128.473206</ele>
<time>2009-12-04T09:42:27.003Z</time>
</trkpt>
<trkpt lat="31.1439200" lon="35.2863200">
<ele>126.552963</ele>
<time>2009-12-04T09:43:20.001Z</time>
</trkpt>
<trkpt lat="31.1440400" lon="35.2864700">
<ele>125.120399</ele>
<time>2009-12-04T09:43:22.999Z</time>
</trkpt>
<trkpt lat="31.1441300" lon="35.2865800">
<ele>125.120399</ele>
<time>2009-12-04T09:43:25.003Z</time>
</trkpt>
<trkpt lat="31.1442400" lon="35.2869300">
<ele>122.224800</ele>
<time>2009-12-04T09:43:29.997Z</time>
</trkpt>
<trkpt lat="31.1441200" lon="35.2875600">
<ele>121.737122</ele>
<time>2009-12-04T09:43:37.998Z</time>
</trkpt>
<trkpt lat="31.1441400" lon="35.2877300">
<ele>119.816879</ele>
<time>2009-12-04T09:43:40.002Z</time>
</trkpt>
<trkpt lat="31.1442300" lon="35.2879900">
<ele>117.408966</ele>
<time>2009-12-04T09:43:43.000Z</time>
</trkpt>
<trkpt lat="31.1444300" lon="35.2886800">
<ele>115.976402</ele>
<time>2009-12-04T09:43:51.001Z</time>
</trkpt>
<trkpt lat="31.1443800" lon="35.2890100">
<ele>116.464081</ele>
<time>2009-12-04T09:43:56.004Z</time>
</trkpt>
<trkpt lat="31.1443300" lon="35.2892700">
<ele>115.976402</ele>
<time>2009-12-04T09:44:00.997Z</time>
</trkpt>
<trkpt lat="31.1442800" lon="35.2894700">
<ele>114.543839</ele>
<time>2009-12-04T09:44:04.004Z</time>
</trkpt>
<trkpt lat="31.1442200" lon="35.2896300">
<ele>115.001038</ele>
<time>2009-12-04T09:44:07.002Z</time>
</trkpt>
<trkpt lat="31.1441400" lon="35.2897400">
<ele>114.056160</ele>
<time>2009-12-04T09:44:15.003Z</time>
</trkpt>
<trkpt lat="31.1441500" lon="35.2898900">
<ele>114.543839</ele>
<time>2009-12-04T09:45:31.000Z</time>
</trkpt>
<trkpt lat="31.1443100" lon="35.2903500">
<ele>113.568481</ele>
<time>2009-12-04T09:45:40.997Z</time>
</trkpt>
<trkpt lat="31.1445400" lon="35.2906900">
<ele>113.568481</ele>
<time>2009-12-04T09:45:48.004Z</time>
</trkpt>
<trkpt lat="31.1447700" lon="35.2910600">
<ele>113.568481</ele>
<time>2009-12-04T09:45:56.998Z</time>
</trkpt>
<trkpt lat="31.1446900" lon="35.2912300">
<ele>114.543839</ele>
<time>2009-12-04T09:46:00.998Z</time>
</trkpt>
<trkpt lat="31.1448500" lon="35.2914400">
<ele>112.623596</ele>
<time>2009-12-04T09:46:07.997Z</time>
</trkpt>
<trkpt lat="31.1453300" lon="35.2915300">
<ele>111.160561</ele>
<time>2009-12-04T09:46:15.997Z</time>
</trkpt>
<trkpt lat="31.1455000" lon="35.2915400">
<ele>108.295433</ele>
<time>2009-12-04T09:46:19.004Z</time>
</trkpt>
<trkpt lat="31.1456500" lon="35.2916000">
<ele>106.375198</ele>
<time>2009-12-04T09:46:22.996Z</time>
</trkpt>
<trkpt lat="31.1457300" lon="35.2917100">
<ele>104.912163</ele>
<time>2009-12-04T09:46:30.996Z</time>
</trkpt>
<trkpt lat="31.1457600" lon="35.2917400">
<ele>103.967285</ele>
<time>2009-12-04T09:46:31.999Z</time>
</trkpt>
<trkpt lat="31.1458700" lon="35.2919400">
<ele>99.639114</ele>
<time>2009-12-04T09:46:37.001Z</time>
</trkpt>
<trkpt lat="31.1459100" lon="35.2920300">
<ele>98.206566</ele>
<time>2009-12-04T09:46:38.997Z</time>
</trkpt>
<trkpt lat="31.1460900" lon="35.2921600">
<ele>95.310966</ele>
<time>2009-12-04T09:46:44.000Z</time>
</trkpt>
<trkpt lat="31.1462100" lon="35.2921800">
<ele>95.310966</ele>
<time>2009-12-04T09:46:54.998Z</time>
</trkpt>
<trkpt lat="31.1465000" lon="35.2921900">
<ele>91.470482</ele>
<time>2009-12-04T09:47:33.999Z</time>
</trkpt>
<trkpt lat="31.1466200" lon="35.2922300">
<ele>90.982803</ele>
<time>2009-12-04T09:47:36.997Z</time>
</trkpt>
<trkpt lat="31.1467100" lon="35.2920300">
<ele>92.415367</ele>
<time>2009-12-04T09:47:47.003Z</time>
</trkpt>
<trkpt lat="31.1468500" lon="35.2920900">
<ele>93.878403</ele>
<time>2009-12-04T09:47:55.997Z</time>
</trkpt>
<trkpt lat="31.1468800" lon="35.2921600">
<ele>95.798637</ele>
<time>2009-12-04T09:48:00.999Z</time>
</trkpt>
<trkpt lat="31.1470300" lon="35.2922000">
<ele>97.231201</ele>
<time>2009-12-04T09:48:14.003Z</time>
</trkpt>
<trkpt lat="31.1470000" lon="35.2925300">
<ele>95.310966</ele>
<time>2009-12-04T09:48:26.004Z</time>
</trkpt>
<trkpt lat="31.1470200" lon="35.2927400">
<ele>92.415367</ele>
<time>2009-12-04T09:48:30.004Z</time>
</trkpt>
<trkpt lat="31.1469700" lon="35.2928500">
<ele>92.415367</ele>
<time>2009-12-04T09:48:33.002Z</time>
</trkpt>
<trkpt lat="31.1467500" lon="35.2931000">
<ele>93.878403</ele>
<time>2009-12-04T09:48:49.997Z</time>
</trkpt>
<trkpt lat="31.1466900" lon="35.2932000">
<ele>94.823280</ele>
<time>2009-12-04T09:48:56.002Z</time>
</trkpt>
<trkpt lat="31.1465700" lon="35.2935200">
<ele>97.231201</ele>
<time>2009-12-04T09:49:12.996Z</time>
</trkpt>
<trkpt lat="31.1464400" lon="35.2939100">
<ele>97.718880</ele>
<time>2009-12-04T09:49:31.002Z</time>
</trkpt>
<trkpt lat="31.1464600" lon="35.2941900">
<ele>98.663765</ele>
<time>2009-12-04T09:49:44.999Z</time>
</trkpt>
<trkpt lat="31.1463800" lon="35.2945100">
<ele>99.639114</ele>
<time>2009-12-04T09:49:59.998Z</time>
</trkpt>
<trkpt lat="31.1465100" lon="35.2949200">
<ele>101.071678</ele>
<time>2009-12-04T09:50:20.000Z</time>
</trkpt>
<trkpt lat="31.1466500" lon="35.2952100">
<ele>104.454964</ele>
<time>2009-12-04T09:50:33.996Z</time>
</trkpt>
<trkpt lat="31.1467600" lon="35.2955800">
<ele>105.399834</ele>
<time>2009-12-04T09:50:52.996Z</time>
</trkpt>
<trkpt lat="31.1467800" lon="35.2959300">
<ele>107.320084</ele>
<time>2009-12-04T09:51:09.999Z</time>
</trkpt>
<trkpt lat="31.1467500" lon="35.2964000">
<ele>109.240318</ele>
<time>2009-12-04T09:51:32.999Z</time>
</trkpt>
<trkpt lat="31.1466000" lon="35.2968900">
<ele>106.832397</ele>
<time>2009-12-04T09:51:47.998Z</time>
</trkpt>
<trkpt lat="31.1466000" lon="35.2970100">
<ele>108.295433</ele>
<time>2009-12-04T09:51:50.996Z</time>
</trkpt>
<trkpt lat="31.1466300" lon="35.2970600">
<ele>109.727997</ele>
<time>2009-12-04T09:51:54.003Z</time>
</trkpt>
<trkpt lat="31.1467100" lon="35.2971500">
<ele>111.648239</ele>
<time>2009-12-04T09:52:03.999Z</time>
</trkpt>
<trkpt lat="31.1468000" lon="35.2973700">
<ele>115.001038</ele>
<time>2009-12-04T09:52:20.001Z</time>
</trkpt>
<trkpt lat="31.1468400" lon="35.2975500">
<ele>118.384315</ele>
<time>2009-12-04T09:52:33.997Z</time>
</trkpt>
<trkpt lat="31.1468600" lon="35.2976800">
<ele>119.816879</ele>
<time>2009-12-04T09:52:51.001Z</time>
</trkpt>
<trkpt lat="31.1468700" lon="35.2977600">
<ele>121.249435</ele>
<time>2009-12-04T09:53:06.000Z</time>
</trkpt>
<trkpt lat="31.1469100" lon="35.2979600">
<ele>122.224800</ele>
<time>2009-12-04T09:53:27.004Z</time>
</trkpt>
<trkpt lat="31.1469100" lon="35.2980700">
<ele>121.249435</ele>
<time>2009-12-04T09:53:29.000Z</time>
</trkpt>
<trkpt lat="31.1469600" lon="35.2986900">
<ele>120.792236</ele>
<time>2009-12-04T09:53:42.003Z</time>
</trkpt>
<trkpt lat="31.1470300" lon="35.2990400">
<ele>119.816879</ele>
<time>2009-12-04T09:53:50.004Z</time>
</trkpt>
<trkpt lat="31.1472000" lon="35.2993300">
<ele>118.384315</ele>
<time>2009-12-04T09:53:56.000Z</time>
</trkpt>
<trkpt lat="31.1472700" lon="35.2997100">
<ele>121.737122</ele>
<time>2009-12-04T09:54:06.998Z</time>
</trkpt>
<trkpt lat="31.1472000" lon="35.3002600">
<ele>120.792236</ele>
<time>2009-12-04T09:54:21.004Z</time>
</trkpt>
<trkpt lat="31.1471700" lon="35.3008200">
<ele>119.329201</ele>
<time>2009-12-04T09:54:36.003Z</time>
</trkpt>
<trkpt lat="31.1471800" lon="35.3015200">
<ele>117.408966</ele>
<time>2009-12-04T09:54:44.997Z</time>
</trkpt>
<trkpt lat="31.1471000" lon="35.3017500">
<ele>116.464081</ele>
<time>2009-12-04T09:54:48.997Z</time>
</trkpt>
<trkpt lat="31.1470100" lon="35.3023600">
<ele>117.408966</ele>
<time>2009-12-04T09:55:02.001Z</time>
</trkpt>
<trkpt lat="31.1469700" lon="35.3028300">
<ele>117.408966</ele>
<time>2009-12-04T09:55:14.002Z</time>
</trkpt>
<trkpt lat="31.1470400" lon="35.3033900">
<ele>115.488716</ele>
<time>2009-12-04T09:55:25.000Z</time>
</trkpt>
<trkpt lat="31.1471000" lon="35.3037500">
<ele>115.976402</ele>
<time>2009-12-04T09:55:34.003Z</time>
</trkpt>
<trkpt lat="31.1471000" lon="35.3039300">
<ele>116.951767</ele>
<time>2009-12-04T09:55:44.000Z</time>
</trkpt>
<trkpt lat="31.1472200" lon="35.3042800">
<ele>119.329201</ele>
<time>2009-12-04T09:56:04.001Z</time>
</trkpt>
<trkpt lat="31.1472900" lon="35.3045600">
<ele>121.737122</ele>
<time>2009-12-04T09:56:20.996Z</time>
</trkpt>
<trkpt lat="31.1473300" lon="35.3048400">
<ele>124.632721</ele>
<time>2009-12-04T09:56:38.000Z</time>
</trkpt>
<trkpt lat="31.1473700" lon="35.3051100">
<ele>127.040634</ele>
<time>2009-12-04T09:56:55.997Z</time>
</trkpt>
<trkpt lat="31.1474700" lon="35.3057700">
<ele>130.881119</ele>
<time>2009-12-04T09:57:34.998Z</time>
</trkpt>
<trkpt lat="31.1475400" lon="35.3062800">
<ele>130.881119</ele>
<time>2009-12-04T09:57:52.001Z</time>
</trkpt>
<trkpt lat="31.1474300" lon="35.3067300">
<ele>130.881119</ele>
<time>2009-12-04T09:58:08.003Z</time>
</trkpt>
<trkpt lat="31.1472000" lon="35.3068800">
<ele>131.826004</ele>
<time>2009-12-04T09:58:21.999Z</time>
</trkpt>
<trkpt lat="31.1470100" lon="35.3071200">
<ele>131.826004</ele>
<time>2009-12-04T10:04:34.997Z</time>
</trkpt>
<trkpt lat="31.1468700" lon="35.3075800">
<ele>131.368805</ele>
<time>2009-12-04T10:04:49.996Z</time>
</trkpt>
<trkpt lat="31.1466900" lon="35.3079300">
<ele>129.905762</ele>
<time>2009-12-04T10:05:01.997Z</time>
</trkpt>
<trkpt lat="31.1463500" lon="35.3084000">
<ele>128.960876</ele>
<time>2009-12-04T10:05:16.996Z</time>
</trkpt>
<trkpt lat="31.1461900" lon="35.3086600">
<ele>130.881119</ele>
<time>2009-12-04T10:05:29.999Z</time>
</trkpt>
<trkpt lat="31.1460700" lon="35.3088300">
<ele>129.448563</ele>
<time>2009-12-04T10:05:55.003Z</time>
</trkpt>
<trkpt lat="31.1458200" lon="35.3092700">
<ele>128.473206</ele>
<time>2009-12-04T10:06:03.997Z</time>
</trkpt>
<trkpt lat="31.1457200" lon="35.3094300">
<ele>127.497833</ele>
<time>2009-12-04T10:06:07.004Z</time>
</trkpt>
<trkpt lat="31.1455300" lon="35.3096000">
<ele>126.065285</ele>
<time>2009-12-04T10:06:10.996Z</time>
</trkpt>
<trkpt lat="31.1454300" lon="35.3101000">
<ele>125.120399</ele>
<time>2009-12-04T10:06:18.996Z</time>
</trkpt>
<trkpt lat="31.1454700" lon="35.3102200">
<ele>125.120399</ele>
<time>2009-12-04T10:06:21.001Z</time>
</trkpt>
<trkpt lat="31.1458500" lon="35.3111600">
<ele>123.200165</ele>
<time>2009-12-04T10:06:34.998Z</time>
</trkpt>
<trkpt lat="31.1459000" lon="35.3114400">
<ele>121.737122</ele>
<time>2009-12-04T10:06:38.998Z</time>
</trkpt>
<trkpt lat="31.1459100" lon="35.3115200">
<ele>120.792236</ele>
<time>2009-12-04T10:06:40.000Z</time>
</trkpt>
<trkpt lat="31.1459300" lon="35.3121200">
<ele>116.951767</ele>
<time>2009-12-04T10:06:48.001Z</time>
</trkpt>
<trkpt lat="31.1459800" lon="35.3124600">
<ele>114.543839</ele>
<time>2009-12-04T10:06:53.004Z</time>
</trkpt>
<trkpt lat="31.1459500" lon="35.3126800">
<ele>112.623596</ele>
<time>2009-12-04T10:06:57.004Z</time>
</trkpt>
<trkpt lat="31.1458800" lon="35.3129000">
<ele>109.727997</ele>
<time>2009-12-04T10:07:01.998Z</time>
</trkpt>
<trkpt lat="31.1458800" lon="35.3130400">
<ele>108.752640</ele>
<time>2009-12-04T10:07:04.996Z</time>
</trkpt>
<trkpt lat="31.1460100" lon="35.3133500">
<ele>104.454964</ele>
<time>2009-12-04T10:07:09.998Z</time>
</trkpt>
<trkpt lat="31.1461400" lon="35.3135800">
<ele>102.047035</ele>
<time>2009-12-04T10:07:12.996Z</time>
</trkpt>
<trkpt lat="31.1464000" lon="35.3138600">
<ele>100.126801</ele>
<time>2009-12-04T10:07:17.999Z</time>
</trkpt>
<trkpt lat="31.1465300" lon="35.3143400">
<ele>98.206566</ele>
<time>2009-12-04T10:07:26.000Z</time>
</trkpt>
<trkpt lat="31.1464800" lon="35.3145800">
<ele>98.663765</ele>
<time>2009-12-04T10:07:31.002Z</time>
</trkpt>
<trkpt lat="31.1466300" lon="35.3151800">
<ele>96.743515</ele>
<time>2009-12-04T10:07:47.004Z</time>
</trkpt>
<trkpt lat="31.1466400" lon="35.3153000">
<ele>93.878403</ele>
<time>2009-12-04T10:07:48.999Z</time>
</trkpt>
<trkpt lat="31.1466000" lon="35.3154800">
<ele>90.007439</ele>
<time>2009-12-04T10:07:51.997Z</time>
</trkpt>
<trkpt lat="31.1465000" lon="35.3156400">
<ele>88.574883</ele>
<time>2009-12-04T10:07:55.004Z</time>
</trkpt>
<trkpt lat="31.1464600" lon="35.3159900">
<ele>85.222084</ele>
<time>2009-12-04T10:07:59.998Z</time>
</trkpt>
<trkpt lat="31.1464700" lon="35.3161400">
<ele>84.734398</ele>
<time>2009-12-04T10:08:02.003Z</time>
</trkpt>
<trkpt lat="31.1465600" lon="35.3168900">
<ele>83.301834</ele>
<time>2009-12-04T10:08:14.004Z</time>
</trkpt>
<trkpt lat="31.1466000" lon="35.3170900">
<ele>81.838799</ele>
<time>2009-12-04T10:08:18.004Z</time>
</trkpt>
<trkpt lat="31.1465800" lon="35.3174000">
<ele>80.406235</ele>
<time>2009-12-04T10:08:22.004Z</time>
</trkpt>
<trkpt lat="31.1465700" lon="35.3175600">
<ele>79.430885</ele>
<time>2009-12-04T10:08:24.000Z</time>
</trkpt>
<trkpt lat="31.1466100" lon="35.3178000">
<ele>77.998322</ele>
<time>2009-12-04T10:08:26.998Z</time>
</trkpt>
<trkpt lat="31.1466600" lon="35.3181200">
<ele>76.565758</ele>
<time>2009-12-04T10:08:30.998Z</time>
</trkpt>
<trkpt lat="31.1466300" lon="35.3185700">
<ele>73.670158</ele>
<time>2009-12-04T10:08:36.001Z</time>
</trkpt>
<trkpt lat="31.1465800" lon="35.3190200">
<ele>72.237602</ele>
<time>2009-12-04T10:08:41.004Z</time>
</trkpt>
<trkpt lat="31.1466200" lon="35.3193500">
<ele>70.805038</ele>
<time>2009-12-04T10:08:45.004Z</time>
</trkpt>
<trkpt lat="31.1467600" lon="35.3200000">
<ele>69.342003</ele>
<time>2009-12-04T10:08:53.998Z</time>
</trkpt>
<trkpt lat="31.1469000" lon="35.3203800">
<ele>70.317360</ele>
<time>2009-12-04T10:09:01.999Z</time>
</trkpt>
<trkpt lat="31.1469500" lon="35.3206500">
<ele>68.884804</ele>
<time>2009-12-04T10:09:08.004Z</time>
</trkpt>
<trkpt lat="31.1469500" lon="35.3207500">
<ele>67.909439</ele>
<time>2009-12-04T10:09:09.999Z</time>
</trkpt>
<trkpt lat="31.1467700" lon="35.3212200">
<ele>68.884804</ele>
<time>2009-12-04T10:09:19.996Z</time>
</trkpt>
<trkpt lat="31.1467100" lon="35.3214200">
<ele>68.884804</ele>
<time>2009-12-04T10:09:23.996Z</time>
</trkpt>
<trkpt lat="31.1467100" lon="35.3215300">
<ele>68.397118</ele>
<time>2009-12-04T10:09:26.001Z</time>
</trkpt>
<trkpt lat="31.1467100" lon="35.3218300">
<ele>68.884804</ele>
<time>2009-12-04T10:09:31.997Z</time>
</trkpt>
<trkpt lat="31.1467900" lon="35.3220700">
<ele>67.909439</ele>
<time>2009-12-04T10:09:36.999Z</time>
</trkpt>
<trkpt lat="31.1471900" lon="35.3226000">
<ele>65.989197</ele>
<time>2009-12-04T10:09:50.996Z</time>
</trkpt>
<trkpt lat="31.1474500" lon="35.3228700">
<ele>65.501518</ele>
<time>2009-12-04T10:09:59.999Z</time>
</trkpt>
<trkpt lat="31.1475800" lon="35.3230900">
<ele>62.636398</ele>
<time>2009-12-04T10:10:06.004Z</time>
</trkpt>
<trkpt lat="31.1477100" lon="35.3233300">
<ele>59.740799</ele>
<time>2009-12-04T10:10:10.004Z</time>
</trkpt>
<trkpt lat="31.1478000" lon="35.3234500">
<ele>58.765442</ele>
<time>2009-12-04T10:10:12.000Z</time>
</trkpt>
<trkpt lat="31.1480600" lon="35.3237300">
<ele>57.820560</ele>
<time>2009-12-04T10:10:21.003Z</time>
</trkpt>
<trkpt lat="31.1481900" lon="35.3237900">
<ele>54.924957</ele>
<time>2009-12-04T10:10:25.003Z</time>
</trkpt>
<trkpt lat="31.1484500" lon="35.3238500">
<ele>49.164242</ele>
<time>2009-12-04T10:10:29.997Z</time>
</trkpt>
<trkpt lat="31.1485700" lon="35.3238800">
<ele>46.268642</ele>
<time>2009-12-04T10:10:32.002Z</time>
</trkpt>
<trkpt lat="31.1488000" lon="35.3240100">
<ele>43.891201</ele>
<time>2009-12-04T10:10:36.002Z</time>
</trkpt>
<trkpt lat="31.1489700" lon="35.3241700">
<ele>40.020241</ele>
<time>2009-12-04T10:10:40.002Z</time>
</trkpt>
<trkpt lat="31.1491300" lon="35.3242700">
<ele>39.075359</ele>
<time>2009-12-04T10:10:44.003Z</time>
</trkpt>
<trkpt lat="31.1491800" lon="35.3242800">
<ele>38.587681</ele>
<time>2009-12-04T10:10:44.996Z</time>
</trkpt>
<trkpt lat="31.1494600" lon="35.3242700">
<ele>37.155121</ele>
<time>2009-12-04T10:10:52.997Z</time>
</trkpt>
<trkpt lat="31.1496800" lon="35.3242800">
<ele>39.075359</ele>
<time>2009-12-04T10:11:02.000Z</time>
</trkpt>
<trkpt lat="31.1500100" lon="35.3242000">
<ele>39.075359</ele>
<time>2009-12-04T10:11:15.003Z</time>
</trkpt>
<trkpt lat="31.1502700" lon="35.3238900">
<ele>40.507919</ele>
<time>2009-12-04T10:11:29.000Z</time>
</trkpt>
<trkpt lat="31.1503800" lon="35.3236100">
<ele>41.940483</ele>
<time>2009-12-04T10:11:42.003Z</time>
</trkpt>
<trkpt lat="31.1505700" lon="35.3232300">
<ele>42.428158</ele>
<time>2009-12-04T10:11:58.998Z</time>
</trkpt>
<trkpt lat="31.1507500" lon="35.3231800">
<ele>41.940483</ele>
<time>2009-12-04T10:12:05.996Z</time>
</trkpt>
<trkpt lat="31.1509800" lon="35.3231700">
<ele>40.995602</ele>
<time>2009-12-04T10:12:10.999Z</time>
</trkpt>
<trkpt lat="31.1513000" lon="35.3232500">
<ele>39.563042</ele>
<time>2009-12-04T10:12:17.997Z</time>
</trkpt>
<trkpt lat="31.1514600" lon="35.3233300">
<ele>40.507919</ele>
<time>2009-12-04T10:12:21.997Z</time>
</trkpt>
<trkpt lat="31.1520200" lon="35.3233700">
<ele>41.940483</ele>
<time>2009-12-04T10:12:41.999Z</time>
</trkpt>
<trkpt lat="31.1525200" lon="35.3234600">
<ele>39.563042</ele>
<time>2009-12-04T10:12:55.996Z</time>
</trkpt>
<trkpt lat="31.1528200" lon="35.3235300">
<ele>36.667442</ele>
<time>2009-12-04T10:13:03.003Z</time>
</trkpt>
<trkpt lat="31.1529300" lon="35.3235400">
<ele>36.179760</ele>
<time>2009-12-04T10:13:11.004Z</time>
</trkpt>
<trkpt lat="31.1530300" lon="35.3235000">
<ele>38.587681</ele>
<time>2009-12-04T10:13:25.000Z</time>
</trkpt>
<trkpt lat="31.1530900" lon="35.3234800">
<ele>39.563042</ele>
<time>2009-12-04T10:13:45.002Z</time>
</trkpt>
<trkpt lat="31.1531400" lon="35.3234500">
<ele>40.020241</ele>
<time>2009-12-04T10:15:57.997Z</time>
</trkpt>
<trkpt lat="31.1532500" lon="35.3233800">
<ele>41.483280</ele>
<time>2009-12-04T10:16:05.998Z</time>
</trkpt>
<trkpt lat="31.1533300" lon="35.3233700">
<ele>42.915840</ele>
<time>2009-12-04T10:16:11.001Z</time>
</trkpt>
<trkpt lat="31.1537100" lon="35.3233200">
<ele>43.891201</ele>
<time>2009-12-04T10:16:28.004Z</time>
</trkpt>
<trkpt lat="31.1540700" lon="35.3232700">
<ele>44.348400</ele>
<time>2009-12-04T10:16:43.003Z</time>
</trkpt>
<trkpt lat="31.1544500" lon="35.3231700">
<ele>45.323757</ele>
<time>2009-12-04T10:17:02.003Z</time>
</trkpt>
<trkpt lat="31.1548200" lon="35.3230900">
<ele>44.836082</ele>
<time>2009-12-04T10:17:14.997Z</time>
</trkpt>
<trkpt lat="31.1549600" lon="35.3230700">
<ele>47.731682</ele>
<time>2009-12-04T10:17:25.002Z</time>
</trkpt>
<trkpt lat="31.1551900" lon="35.3230800">
<ele>48.188881</ele>
<time>2009-12-04T10:17:37.997Z</time>
</trkpt>
<trkpt lat="31.1555700" lon="35.3231400">
<ele>50.596802</ele>
<time>2009-12-04T10:17:56.996Z</time>
</trkpt>
<trkpt lat="31.1558300" lon="35.3232700">
<ele>52.059841</ele>
<time>2009-12-04T10:18:14.000Z</time>
</trkpt>
<trkpt lat="31.1561400" lon="35.3233200">
<ele>52.517040</ele>
<time>2009-12-04T10:18:27.996Z</time>
</trkpt>
<trkpt lat="31.1563300" lon="35.3234500">
<ele>55.900318</ele>
<time>2009-12-04T10:18:43.998Z</time>
</trkpt>
<trkpt lat="31.1565400" lon="35.3236200">
<ele>57.332882</ele>
<time>2009-12-04T10:19:03.999Z</time>
</trkpt>
<trkpt lat="31.1566600" lon="35.3237400">
<ele>61.173359</ele>
<time>2009-12-04T10:19:17.003Z</time>
</trkpt>
<trkpt lat="31.1568400" lon="35.3239900">
<ele>64.068962</ele>
<time>2009-12-04T10:19:43.000Z</time>
</trkpt>
<trkpt lat="31.1569700" lon="35.3242200">
<ele>64.556641</ele>
<time>2009-12-04T10:20:00.997Z</time>
</trkpt>
<trkpt lat="31.1571700" lon="35.3245100">
<ele>66.476883</ele>
<time>2009-12-04T10:20:20.999Z</time>
</trkpt>
<trkpt lat="31.1573000" lon="35.3246600">
<ele>69.829681</ele>
<time>2009-12-04T10:20:37.000Z</time>
</trkpt>
<trkpt lat="31.1574300" lon="35.3248900">
<ele>71.749916</ele>
<time>2009-12-04T10:20:56.000Z</time>
</trkpt>
<trkpt lat="31.1575800" lon="35.3250900">
<ele>72.237602</ele>
<time>2009-12-04T10:21:10.999Z</time>
</trkpt>
<trkpt lat="31.1577100" lon="35.3253100">
<ele>73.182480</ele>
<time>2009-12-04T10:21:28.996Z</time>
</trkpt>
<trkpt lat="31.1579700" lon="35.3255300">
<ele>71.262238</ele>
<time>2009-12-04T10:56:02.000Z</time>
</trkpt>
<trkpt lat="31.1584500" lon="35.3254100">
<ele>72.237602</ele>
<time>2009-12-04T10:56:16.999Z</time>
</trkpt>
<trkpt lat="31.1588800" lon="35.3252000">
<ele>71.262238</ele>
<time>2009-12-04T10:56:31.004Z</time>
</trkpt>
<trkpt lat="31.1596200" lon="35.3248700">
<ele>72.725281</ele>
<time>2009-12-04T10:56:53.002Z</time>
</trkpt>
<trkpt lat="31.1601100" lon="35.3246900">
<ele>74.157845</ele>
<time>2009-12-04T10:57:09.996Z</time>
</trkpt>
<trkpt lat="31.1606000" lon="35.3243100">
<ele>74.157845</ele>
<time>2009-12-04T10:57:28.996Z</time>
</trkpt>
<trkpt lat="31.1608600" lon="35.3241200">
<ele>71.749916</ele>
<time>2009-12-04T10:57:36.003Z</time>
</trkpt>
<trkpt lat="31.1610100" lon="35.3240300">
<ele>70.805038</ele>
<time>2009-12-04T10:57:39.001Z</time>
</trkpt>
<trkpt lat="31.1618000" lon="35.3236000">
<ele>66.934082</ele>
<time>2009-12-04T10:57:52.004Z</time>
</trkpt>
<trkpt lat="31.1622100" lon="35.3235300">
<ele>65.989197</ele>
<time>2009-12-04T10:57:58.000Z</time>
</trkpt>
<trkpt lat="31.1624200" lon="35.3236200">
<ele>65.013840</ele>
<time>2009-12-04T10:58:02.001Z</time>
</trkpt>
<trkpt lat="31.1625400" lon="35.3239100">
<ele>61.173359</ele>
<time>2009-12-04T10:58:06.001Z</time>
</trkpt>
<trkpt lat="31.1626600" lon="35.3241800">
<ele>62.148720</ele>
<time>2009-12-04T10:58:12.999Z</time>
</trkpt>
<trkpt lat="31.1626600" lon="35.3242200">
<ele>61.661041</ele>
<time>2009-12-04T10:59:28.997Z</time>
</trkpt>
<trkpt lat="31.1625000" lon="35.3245800">
<ele>61.173359</ele>
<time>2009-12-04T10:59:40.998Z</time>
</trkpt>
<trkpt lat="31.1619900" lon="35.3255800">
<ele>58.308243</ele>
<time>2009-12-04T11:00:03.004Z</time>
</trkpt>
<trkpt lat="31.1616400" lon="35.3262900">
<ele>54.924957</ele>
<time>2009-12-04T11:00:14.996Z</time>
</trkpt>
<trkpt lat="31.1614700" lon="35.3266400">
<ele>52.517040</ele>
<time>2009-12-04T11:00:19.999Z</time>
</trkpt>
<trkpt lat="31.1611800" lon="35.3273400">
<ele>49.164242</ele>
<time>2009-12-04T11:00:29.002Z</time>
</trkpt>
<trkpt lat="31.1611500" lon="35.3275100">
<ele>48.188881</ele>
<time>2009-12-04T11:00:30.997Z</time>
</trkpt>
<trkpt lat="31.1609500" lon="35.3283800">
<ele>46.756317</ele>
<time>2009-12-04T11:00:41.996Z</time>
</trkpt>
<trkpt lat="31.1607700" lon="35.3287000">
<ele>44.836082</ele>
<time>2009-12-04T11:00:46.999Z</time>
</trkpt>
<trkpt lat="31.1600700" lon="35.3292700">
<ele>40.507919</ele>
<time>2009-12-04T11:00:59.000Z</time>
</trkpt>
<trkpt lat="31.1597800" lon="35.3295600">
<ele>40.020241</ele>
<time>2009-12-04T11:01:04.002Z</time>
</trkpt>
<trkpt lat="31.1595400" lon="35.3300600">
<ele>36.179760</ele>
<time>2009-12-04T11:01:09.998Z</time>
</trkpt>
<trkpt lat="31.1593900" lon="35.3304400">
<ele>32.826958</ele>
<time>2009-12-04T11:01:13.999Z</time>
</trkpt>
<trkpt lat="31.1590700" lon="35.3312400">
<ele>28.498800</ele>
<time>2009-12-04T11:01:21.999Z</time>
</trkpt>
<trkpt lat="31.1589000" lon="35.3316700">
<ele>26.578560</ele>
<time>2009-12-04T11:01:26.000Z</time>
</trkpt>
<trkpt lat="31.1587700" lon="35.3319900">
<ele>24.170641</ele>
<time>2009-12-04T11:01:28.998Z</time>
</trkpt>
<trkpt lat="31.1586400" lon="35.3323300">
<ele>19.842480</ele>
<time>2009-12-04T11:01:31.996Z</time>
</trkpt>
<trkpt lat="31.1585100" lon="35.3326700">
<ele>16.946880</ele>
<time>2009-12-04T11:01:35.003Z</time>
</trkpt>
<trkpt lat="31.1584600" lon="35.3327900">
<ele>16.489679</ele>
<time>2009-12-04T11:01:35.996Z</time>
</trkpt>
<trkpt lat="31.1582200" lon="35.3333900">
<ele>13.106400</ele>
<time>2009-12-04T11:01:40.999Z</time>
</trkpt>
<trkpt lat="31.1580500" lon="35.3337200">
<ele>8.778240</ele>
<time>2009-12-04T11:01:43.997Z</time>
</trkpt>
<trkpt lat="31.1577500" lon="35.3340300">
<ele>5.913120</ele>
<time>2009-12-04T11:01:47.997Z</time>
</trkpt>
<trkpt lat="31.1573500" lon="35.3341800">
<ele>3.017520</ele>
<time>2009-12-04T11:01:51.997Z</time>
</trkpt>
<trkpt lat="31.1571400" lon="35.3341800">
<ele>0.609600</ele>
<time>2009-12-04T11:01:54.002Z</time>
</trkpt>
<trkpt lat="31.1567100" lon="35.3341400">
<ele>-5.638800</ele>
<time>2009-12-04T11:01:58.002Z</time>
</trkpt>
<trkpt lat="31.1562600" lon="35.3340800">
<ele>-8.991600</ele>
<time>2009-12-04T11:02:02.003Z</time>
</trkpt>
<trkpt lat="31.1561400" lon="35.3340600">
<ele>-8.991600</ele>
<time>2009-12-04T11:02:02.996Z</time>
</trkpt>
<trkpt lat="31.1559100" lon="35.3340200">
<ele>-10.911839</ele>
<time>2009-12-04T11:02:05.001Z</time>
</trkpt>
<trkpt lat="31.1555900" lon="35.3338700">
<ele>-14.752320</ele>
<time>2009-12-04T11:02:07.999Z</time>
</trkpt>
<trkpt lat="31.1551600" lon="35.3336200">
<ele>-18.135599</ele>
<time>2009-12-04T11:02:11.999Z</time>
</trkpt>
<trkpt lat="31.1550500" lon="35.3335700">
<ele>-19.568159</ele>
<time>2009-12-04T11:02:13.001Z</time>
</trkpt>
<trkpt lat="31.1545900" lon="35.3334900">
<ele>-23.408642</ele>
<time>2009-12-04T11:02:17.002Z</time>
</trkpt>
<trkpt lat="31.1544800" lon="35.3335200">
<ele>-24.871679</ele>
<time>2009-12-04T11:02:18.004Z</time>
</trkpt>
<trkpt lat="31.1540300" lon="35.3337100">
<ele>-29.657042</ele>
<time>2009-12-04T11:02:22.004Z</time>
</trkpt>
<trkpt lat="31.1536800" lon="35.3338600">
<ele>-33.040321</ele>
<time>2009-12-04T11:02:25.002Z</time>
</trkpt>
<trkpt lat="31.1531800" lon="35.3340000">
<ele>-36.393120</ele>
<time>2009-12-04T11:02:29.003Z</time>
</trkpt>
<trkpt lat="31.1526800" lon="35.3340700">
<ele>-39.745918</ele>
<time>2009-12-04T11:02:33.003Z</time>
</trkpt>
<trkpt lat="31.1522200" lon="35.3341100">
<ele>-42.641518</ele>
<time>2009-12-04T11:02:37.003Z</time>
</trkpt>
<trkpt lat="31.1520200" lon="35.3340800">
<ele>-43.129200</ele>
<time>2009-12-04T11:02:38.999Z</time>
</trkpt>
<trkpt lat="31.1518900" lon="35.3342700">
<ele>-43.129200</ele>
<time>2009-12-04T11:04:40.002Z</time>
</trkpt>
<trkpt lat="31.1519800" lon="35.3345900">
<ele>-46.969681</ele>
<time>2009-12-04T11:04:49.999Z</time>
</trkpt>
<trkpt lat="31.1520600" lon="35.3347900">
<ele>-48.402241</ele>
<time>2009-12-04T11:04:56.004Z</time>
</trkpt>
<trkpt lat="31.1519100" lon="35.3350000">
<ele>-49.865280</ele>
<time>2009-12-04T11:05:03.002Z</time>
</trkpt>
<trkpt lat="31.1515500" lon="35.3352300">
<ele>-52.730400</ele>
<time>2009-12-04T11:05:12.998Z</time>
</trkpt>
<trkpt lat="31.1511100" lon="35.3353600">
<ele>-56.570881</ele>
<time>2009-12-04T11:05:23.004Z</time>
</trkpt>
<trkpt lat="31.1510600" lon="35.3353800">
<ele>-56.570881</ele>
<time>2009-12-04T11:05:23.997Z</time>
</trkpt>
<trkpt lat="31.1508800" lon="35.3355500">
<ele>-55.625999</ele>
<time>2009-12-04T11:05:31.004Z</time>
</trkpt>
<trkpt lat="31.1508100" lon="35.3358200">
<ele>-57.546242</ele>
<time>2009-12-04T11:05:43.999Z</time>
</trkpt>
<trkpt lat="31.1509600" lon="35.3360200">
<ele>-59.466480</ele>
<time>2009-12-04T11:05:54.004Z</time>
</trkpt>
<trkpt lat="31.1512000" lon="35.3360800">
<ele>-60.411358</ele>
<time>2009-12-04T11:06:01.996Z</time>
</trkpt>
<trkpt lat="31.1512600" lon="35.3361400">
<ele>-61.874401</ele>
<time>2009-12-04T11:06:05.003Z</time>
</trkpt>
<trkpt lat="31.1513700" lon="35.3362400">
<ele>-63.306957</ele>
<time>2009-12-04T11:06:09.996Z</time>
</trkpt>
<trkpt lat="31.1516100" lon="35.3363000">
<ele>-65.714882</ele>
<time>2009-12-04T11:06:17.997Z</time>
</trkpt>
<trkpt lat="31.1516600" lon="35.3364300">
<ele>-67.635117</ele>
<time>2009-12-04T11:06:21.997Z</time>
</trkpt>
<trkpt lat="31.1516400" lon="35.3365700">
<ele>-69.555359</ele>
<time>2009-12-04T11:06:25.998Z</time>
</trkpt>
<trkpt lat="31.1514200" lon="35.3367800">
<ele>-71.475601</ele>
<time>2009-12-04T11:06:36.996Z</time>
</trkpt>
<trkpt lat="31.1514300" lon="35.3369100">
<ele>-73.395844</ele>
<time>2009-12-04T11:06:41.999Z</time>
</trkpt>
<trkpt lat="31.1516200" lon="35.3370600">
<ele>-75.803757</ele>
<time>2009-12-04T11:06:51.002Z</time>
</trkpt>
<trkpt lat="31.1515900" lon="35.3372100">
<ele>-79.156563</ele>
<time>2009-12-04T11:06:58.000Z</time>
</trkpt>
<trkpt lat="31.1513800" lon="35.3373200">
<ele>-82.052162</ele>
<time>2009-12-04T11:07:07.997Z</time>
</trkpt>
<trkpt lat="31.1512200" lon="35.3375500">
<ele>-85.892639</ele>
<time>2009-12-04T11:07:18.002Z</time>
</trkpt>
<trkpt lat="31.1511900" lon="35.3376400">
<ele>-87.355682</ele>
<time>2009-12-04T11:07:21.000Z</time>
</trkpt>
<trkpt lat="31.1511700" lon="35.3377900">
<ele>-90.708481</ele>
<time>2009-12-04T11:07:26.003Z</time>
</trkpt>
<trkpt lat="31.1511100" lon="35.3380700">
<ele>-94.061279</ele>
<time>2009-12-04T11:07:35.999Z</time>
</trkpt>
<trkpt lat="31.1509700" lon="35.3381200">
<ele>-93.604080</ele>
<time>2009-12-04T11:07:42.004Z</time>
</trkpt>
<trkpt lat="31.1508900" lon="35.3382100">
<ele>-93.116402</ele>
<time>2009-12-04T11:07:49.996Z</time>
</trkpt>
<trkpt lat="31.1508700" lon="35.3383200">
<ele>-95.036636</ele>
<time>2009-12-04T11:07:53.996Z</time>
</trkpt>
<trkpt lat="31.1507900" lon="35.3384200">
<ele>-98.389435</ele>
<time>2009-12-04T11:07:58.999Z</time>
</trkpt>
<trkpt lat="31.1505500" lon="35.3385200">
<ele>-101.772720</ele>
<time>2009-12-04T11:08:08.002Z</time>
</trkpt>
<trkpt lat="31.1503700" lon="35.3385400">
<ele>-104.180634</ele>
<time>2009-12-04T11:08:15.000Z</time>
</trkpt>
<trkpt lat="31.1500900" lon="35.3386200">
<ele>-106.558083</ele>
<time>2009-12-04T11:08:27.001Z</time>
</trkpt>
<trkpt lat="31.1499900" lon="35.3387400">
<ele>-108.966003</ele>
<time>2009-12-04T11:08:33.999Z</time>
</trkpt>
<trkpt lat="31.1497200" lon="35.3388700">
<ele>-112.349281</ele>
<time>2009-12-04T11:08:46.000Z</time>
</trkpt>
<trkpt lat="31.1493400" lon="35.3390500">
<ele>-114.269516</ele>
<time>2009-12-04T11:08:59.997Z</time>
</trkpt>
<trkpt lat="31.1492400" lon="35.3391000">
<ele>-115.702080</ele>
<time>2009-12-04T11:09:06.002Z</time>
</trkpt>
<trkpt lat="31.1490900" lon="35.3391900">
<ele>-119.054878</ele>
<time>2009-12-04T11:09:14.003Z</time>
</trkpt>
<trkpt lat="31.1489500" lon="35.3393100">
<ele>-122.438164</ele>
<time>2009-12-04T11:09:22.003Z</time>
</trkpt>
<trkpt lat="31.1489200" lon="35.3393100">
<ele>-122.925835</ele>
<time>2009-12-04T11:09:22.997Z</time>
</trkpt>
<trkpt lat="31.1488400" lon="35.3393700">
<ele>-124.358398</ele>
<time>2009-12-04T11:09:26.997Z</time>
</trkpt>
<trkpt lat="31.1487700" lon="35.3394700">
<ele>-126.278633</ele>
<time>2009-12-04T11:09:30.997Z</time>
</trkpt>
<trkpt lat="31.1487100" lon="35.3395400">
<ele>-127.223518</ele>
<time>2009-12-04T11:09:34.004Z</time>
</trkpt>
<trkpt lat="31.1485200" lon="35.3397400">
<ele>-130.119125</ele>
<time>2009-12-04T11:09:42.998Z</time>
</trkpt>
<trkpt lat="31.1483500" lon="35.3401000">
<ele>-131.551682</ele>
<time>2009-12-04T11:09:56.002Z</time>
</trkpt>
<trkpt lat="31.1483200" lon="35.3401500">
<ele>-132.039368</ele>
<time>2009-12-04T11:10:12.003Z</time>
</trkpt>
<trkpt lat="31.1483700" lon="35.3401800">
<ele>-133.471924</ele>
<time>2009-12-04T11:10:34.000Z</time>
</trkpt>
<trkpt lat="31.1485200" lon="35.3402500">
<ele>-134.934967</ele>
<time>2009-12-04T11:10:44.999Z</time>
</trkpt>
<trkpt lat="31.1485800" lon="35.3402900">
<ele>-137.800079</ele>
<time>2009-12-04T11:10:47.997Z</time>
</trkpt>
<trkpt lat="31.1487400" lon="35.3405700">
<ele>-140.695679</ele>
<time>2009-12-04T11:10:57.000Z</time>
</trkpt>
<trkpt lat="31.1486700" lon="35.3409100">
<ele>-141.671036</ele>
<time>2009-12-04T11:11:06.003Z</time>
</trkpt>
<trkpt lat="31.1485400" lon="35.3410400">
<ele>-144.048477</ele>
<time>2009-12-04T11:11:18.004Z</time>
</trkpt>
<trkpt lat="31.1485300" lon="35.3410900">
<ele>-145.968719</ele>
<time>2009-12-04T11:11:33.003Z</time>
</trkpt>
<trkpt lat="31.1485400" lon="35.3412400">
<ele>-149.352005</ele>
<time>2009-12-04T11:11:45.004Z</time>
</trkpt>
<trkpt lat="31.1486600" lon="35.3413900">
<ele>-152.704803</ele>
<time>2009-12-04T11:11:52.996Z</time>
</trkpt>
<trkpt lat="31.1487400" lon="35.3415300">
<ele>-157.520630</ele>
<time>2009-12-04T11:11:56.996Z</time>
</trkpt>
<trkpt lat="31.1488000" lon="35.3416700">
<ele>-160.416229</ele>
<time>2009-12-04T11:12:00.996Z</time>
</trkpt>
<trkpt lat="31.1488200" lon="35.3417300">
<ele>-161.361130</ele>
<time>2009-12-04T11:12:03.001Z</time>
</trkpt>
<trkpt lat="31.1488900" lon="35.3418600">
<ele>-164.713928</ele>
<time>2009-12-04T11:12:07.001Z</time>
</trkpt>
<trkpt lat="31.1489400" lon="35.3420100">
<ele>-168.097198</ele>
<time>2009-12-04T11:12:11.002Z</time>
</trkpt>
<trkpt lat="31.1489900" lon="35.3421800">
<ele>-171.449997</ele>
<time>2009-12-04T11:12:15.002Z</time>
</trkpt>
<trkpt lat="31.1490500" lon="35.3423400">
<ele>-174.833267</ele>
<time>2009-12-04T11:12:19.002Z</time>
</trkpt>
<trkpt lat="31.1491300" lon="35.3424400">
<ele>-177.698395</ele>
<time>2009-12-04T11:12:23.003Z</time>
</trkpt>
<trkpt lat="31.1491900" lon="35.3424900">
<ele>-179.618637</ele>
<time>2009-12-04T11:12:26.001Z</time>
</trkpt>
<trkpt lat="31.1494000" lon="35.3426100">
<ele>-183.001923</ele>
<time>2009-12-04T11:12:35.004Z</time>
</trkpt>
<trkpt lat="31.1495400" lon="35.3428000">
<ele>-187.330078</ele>
<time>2009-12-04T11:12:46.002Z</time>
</trkpt>
<trkpt lat="31.1495300" lon="35.3430000">
<ele>-190.195206</ele>
<time>2009-12-04T11:12:55.999Z</time>
</trkpt>
<trkpt lat="31.1495600" lon="35.3430300">
<ele>-191.170563</ele>
<time>2009-12-04T11:12:58.003Z</time>
</trkpt>
<trkpt lat="31.1496500" lon="35.3431100">
<ele>-194.523361</ele>
<time>2009-12-04T11:13:03.999Z</time>
</trkpt>
<trkpt lat="31.1496800" lon="35.3431200">
<ele>-194.523361</ele>
<time>2009-12-04T11:13:05.002Z</time>
</trkpt>
<trkpt lat="31.1498700" lon="35.3431500">
<ele>-195.986404</ele>
<time>2009-12-04T11:13:13.996Z</time>
</trkpt>
<trkpt lat="31.1499100" lon="35.3431600">
<ele>-198.851532</ele>
<time>2009-12-04T11:16:37.001Z</time>
</trkpt>
<trkpt lat="31.1499400" lon="35.3432200">
<ele>-199.339203</ele>
<time>2009-12-04T11:18:26.997Z</time>
</trkpt>
<trkpt lat="31.1499700" lon="35.3432900">
<ele>-201.747131</ele>
<time>2009-12-04T11:18:41.003Z</time>
</trkpt>
<trkpt lat="31.1500000" lon="35.3433700">
<ele>-203.667358</ele>
<time>2009-12-04T11:18:54.999Z</time>
</trkpt>
<trkpt lat="31.1500100" lon="35.3434700">
<ele>-205.587601</ele>
<time>2009-12-04T11:19:08.996Z</time>
</trkpt>
<trkpt lat="31.1499800" lon="35.3435900">
<ele>-208.483200</ele>
<time>2009-12-04T11:19:27.002Z</time>
</trkpt>
<trkpt lat="31.1500200" lon="35.3436200">
<ele>-209.915756</ele>
<time>2009-12-04T11:19:43.003Z</time>
</trkpt>
<trkpt lat="31.1500600" lon="35.3436200">
<ele>-211.835999</ele>
<time>2009-12-04T11:19:54.002Z</time>
</trkpt>
<trkpt lat="31.1501300" lon="35.3435900">
<ele>-213.268570</ele>
<time>2009-12-04T11:20:03.998Z</time>
</trkpt>
<trkpt lat="31.1502400" lon="35.3436100">
<ele>-216.651840</ele>
<time>2009-12-04T11:20:14.004Z</time>
</trkpt>
<trkpt lat="31.1502400" lon="35.3436700">
<ele>-218.084396</ele>
<time>2009-12-04T11:20:17.002Z</time>
</trkpt>
<trkpt lat="31.1502400" lon="35.3438100">
<ele>-221.437195</ele>
<time>2009-12-04T11:20:29.003Z</time>
</trkpt>
<trkpt lat="31.1502400" lon="35.3438700">
<ele>-222.900238</ele>
<time>2009-12-04T11:20:33.003Z</time>
</trkpt>
<trkpt lat="31.1502600" lon="35.3439100">
<ele>-224.820465</ele>
<time>2009-12-04T11:20:45.997Z</time>
</trkpt>
<trkpt lat="31.1502900" lon="35.3439700">
<ele>-226.253036</ele>
<time>2009-12-04T11:20:56.003Z</time>
</trkpt>
<trkpt lat="31.1503100" lon="35.3440800">
<ele>-229.605835</ele>
<time>2009-12-04T11:21:11.002Z</time>
</trkpt>
<trkpt lat="31.1503200" lon="35.3441600">
<ele>-232.501434</ele>
<time>2009-12-04T11:21:20.998Z</time>
</trkpt>
<trkpt lat="31.1503300" lon="35.3442800">
<ele>-235.397034</ele>
<time>2009-12-04T11:21:38.002Z</time>
</trkpt>
<trkpt lat="31.1503100" lon="35.3443900">
<ele>-238.262161</ele>
<time>2009-12-04T11:21:53.001Z</time>
</trkpt>
<trkpt lat="31.1503100" lon="35.3444500">
<ele>-240.670074</ele>
<time>2009-12-04T11:21:59.999Z</time>
</trkpt>
<trkpt lat="31.1503600" lon="35.3445400">
<ele>-242.590332</ele>
<time>2009-12-04T11:22:14.998Z</time>
</trkpt>
<trkpt lat="31.1504200" lon="35.3445600">
<ele>-243.565674</ele>
<time>2009-12-04T11:22:21.996Z</time>
</trkpt>
<trkpt lat="31.1504300" lon="35.3446900">
<ele>-248.351044</ele>
<time>2009-12-04T11:22:37.004Z</time>
</trkpt>
<trkpt lat="31.1503700" lon="35.3448000">
<ele>-250.758957</ele>
<time>2009-12-04T11:22:53.999Z</time>
</trkpt>
<trkpt lat="31.1503700" lon="35.3448400">
<ele>-252.222000</ele>
<time>2009-12-04T11:23:02.000Z</time>
</trkpt>
<trkpt lat="31.1503700" lon="35.3449100">
<ele>-254.142242</ele>
<time>2009-12-04T11:23:06.000Z</time>
</trkpt>
<trkpt lat="31.1503800" lon="35.3449500">
<ele>-254.599442</ele>
<time>2009-12-04T11:23:07.996Z</time>
</trkpt>
<trkpt lat="31.1503500" lon="35.3451000">
<ele>-257.982727</ele>
<time>2009-12-04T11:23:14.001Z</time>
</trkpt>
<trkpt lat="31.1503400" lon="35.3451600">
<ele>-259.415283</ele>
<time>2009-12-04T11:23:15.996Z</time>
</trkpt>
<trkpt lat="31.1503400" lon="35.3453000">
<ele>-262.768066</ele>
<time>2009-12-04T11:23:19.997Z</time>
</trkpt>
<trkpt lat="31.1503500" lon="35.3453300">
<ele>-262.768066</ele>
<time>2009-12-04T11:23:20.999Z</time>
</trkpt>
<trkpt lat="31.1503900" lon="35.3454400">
<ele>-263.743439</ele>
<time>2009-12-04T11:23:24.999Z</time>
</trkpt>
<trkpt lat="31.1503900" lon="35.3455700">
<ele>-267.096222</ele>
<time>2009-12-04T11:23:29.000Z</time>
</trkpt>
<trkpt lat="31.1503800" lon="35.3456800">
<ele>-268.559265</ele>
<time>2009-12-04T11:23:31.998Z</time>
</trkpt>
<trkpt lat="31.1505000" lon="35.3457400">
<ele>-271.424408</ele>
<time>2009-12-04T11:23:38.996Z</time>
</trkpt>
<trkpt lat="31.1505400" lon="35.3457100">
<ele>-272.887451</ele>
<time>2009-12-04T11:23:41.001Z</time>
</trkpt>
<trkpt lat="31.1505600" lon="35.3456500">
<ele>-273.832336</ele>
<time>2009-12-04T11:23:43.999Z</time>
</trkpt>
<trkpt lat="31.1505700" lon="35.3455800">
<ele>-274.807678</ele>
<time>2009-12-04T11:23:46.997Z</time>
</trkpt>
<trkpt lat="31.1506200" lon="35.3455600">
<ele>-275.295349</ele>
<time>2009-12-04T11:23:50.997Z</time>
</trkpt>
<trkpt lat="31.1506500" lon="35.3455700">
<ele>-277.215607</ele>
<time>2009-12-04T11:23:54.004Z</time>
</trkpt>
<trkpt lat="31.1507500" lon="35.3456800">
<ele>-281.056061</ele>
<time>2009-12-04T11:24:01.002Z</time>
</trkpt>
<trkpt lat="31.1508100" lon="35.3457200">
<ele>-283.921204</ele>
<time>2009-12-04T11:24:04.000Z</time>
</trkpt>
<trkpt lat="31.1508300" lon="35.3457400">
<ele>-283.921204</ele>
<time>2009-12-04T11:24:05.003Z</time>
</trkpt>
<trkpt lat="31.1509100" lon="35.3458400">
<ele>-285.384247</ele>
<time>2009-12-04T11:24:10.999Z</time>
</trkpt>
<trkpt lat="31.1509900" lon="35.3460300">
<ele>-289.712402</ele>
<time>2009-12-04T11:24:17.004Z</time>
</trkpt>
<trkpt lat="31.1510300" lon="35.3462600">
<ele>-289.224731</ele>
<time>2009-12-04T11:24:25.998Z</time>
</trkpt>
<trkpt lat="31.1510000" lon="35.3462300">
<ele>-289.224731</ele>
<time>2009-12-04T11:33:02.998Z</time>
</trkpt>
<trkpt lat="31.1508800" lon="35.3461200">
<ele>-292.577515</ele>
<time>2009-12-04T11:33:13.003Z</time>
</trkpt>
<trkpt lat="31.1508000" lon="35.3461100">
<ele>-293.552887</ele>
<time>2009-12-04T11:33:16.001Z</time>
</trkpt>
<trkpt lat="31.1507000" lon="35.3461800">
<ele>-295.960785</ele>
<time>2009-12-04T11:33:20.002Z</time>
</trkpt>
<trkpt lat="31.1506600" lon="35.3462300">
<ele>-296.905670</ele>
<time>2009-12-04T11:33:21.997Z</time>
</trkpt>
<trkpt lat="31.1506000" lon="35.3465000">
<ele>-296.417999</ele>
<time>2009-12-04T11:33:39.001Z</time>
</trkpt>
<trkpt lat="31.1506800" lon="35.3466500">
<ele>-297.393372</ele>
<time>2009-12-04T11:33:48.997Z</time>
</trkpt>
<trkpt lat="31.1508400" lon="35.3471100">
<ele>-297.393372</ele>
<time>2009-12-04T11:34:03.003Z</time>
</trkpt>
<trkpt lat="31.1507600" lon="35.3474900">
<ele>-298.825928</ele>
<time>2009-12-04T11:34:12.999Z</time>
</trkpt>
<trkpt lat="31.1506400" lon="35.3479500">
<ele>-299.801270</ele>
<time>2009-12-04T11:34:22.996Z</time>
</trkpt>
<trkpt lat="31.1506400" lon="35.3481500">
<ele>-300.288971</ele>
<time>2009-12-04T11:34:26.996Z</time>
</trkpt>
<trkpt lat="31.1507700" lon="35.3486900">
<ele>-301.721527</ele>
<time>2009-12-04T11:34:37.001Z</time>
</trkpt>
<trkpt lat="31.1508200" lon="35.3490800">
<ele>-302.666412</ele>
<time>2009-12-04T11:34:44.000Z</time>
</trkpt>
<trkpt lat="31.1508600" lon="35.3492500">
<ele>-303.641754</ele>
<time>2009-12-04T11:34:46.998Z</time>
</trkpt>
<trkpt lat="31.1509500" lon="35.3494300">
<ele>-303.641754</ele>
<time>2009-12-04T11:34:50.998Z</time>
</trkpt>
<trkpt lat="31.1512200" lon="35.3498000">
<ele>-305.562012</ele>
<time>2009-12-04T11:35:02.999Z</time>
</trkpt>
<trkpt lat="31.1512300" lon="35.3499200">
<ele>-306.537354</ele>
<time>2009-12-04T11:35:05.004Z</time>
</trkpt>
<trkpt lat="31.1511600" lon="35.3502000">
<ele>-308.914795</ele>
<time>2009-12-04T11:35:09.004Z</time>
</trkpt>
<trkpt lat="31.1510900" lon="35.3505800">
<ele>-310.377838</ele>
<time>2009-12-04T11:35:13.998Z</time>
</trkpt>
<trkpt lat="31.1510200" lon="35.3514000">
<ele>-309.890167</ele>
<time>2009-12-04T11:35:27.001Z</time>
</trkpt>
<trkpt lat="31.1507800" lon="35.3519700">
<ele>-313.242950</ele>
<time>2009-12-04T11:35:39.002Z</time>
</trkpt>
<trkpt lat="31.1507300" lon="35.3521000">
<ele>-312.785736</ele>
<time>2009-12-04T11:35:47.003Z</time>
</trkpt>
<trkpt lat="31.1506500" lon="35.3523200">
<ele>-314.218323</ele>
<time>2009-12-04T11:36:53.997Z</time>
</trkpt>
<trkpt lat="31.1505800" lon="35.3524900">
<ele>-315.163208</ele>
<time>2009-12-04T11:36:57.004Z</time>
</trkpt>
<trkpt lat="31.1504700" lon="35.3531500">
<ele>-318.546478</ele>
<time>2009-12-04T11:37:05.998Z</time>
</trkpt>
<trkpt lat="31.1504600" lon="35.3532300">
<ele>-319.034149</ele>
<time>2009-12-04T11:37:07.000Z</time>
</trkpt>
<trkpt lat="31.1504600" lon="35.3535800">
<ele>-321.899261</ele>
<time>2009-12-04T11:37:11.001Z</time>
</trkpt>
<trkpt lat="31.1503500" lon="35.3541200">
<ele>-325.282532</ele>
<time>2009-12-04T11:37:16.997Z</time>
</trkpt>
<trkpt lat="31.1501400" lon="35.3543400">
<ele>-329.580261</ele>
<time>2009-12-04T11:37:20.004Z</time>
</trkpt>
<trkpt lat="31.1498000" lon="35.3546900">
<ele>-329.580261</ele>
<time>2009-12-04T11:37:24.997Z</time>
</trkpt>
<trkpt lat="31.1496800" lon="35.3547800">
<ele>-329.123047</ele>
<time>2009-12-04T11:37:27.002Z</time>
</trkpt>
<trkpt lat="31.1495700" lon="35.3548400">
<ele>-328.635345</ele>
<time>2009-12-04T11:37:28.998Z</time>
</trkpt>
<trkpt lat="31.1491800" lon="35.3553200">
<ele>-325.739746</ele>
<time>2009-12-04T11:37:43.997Z</time>
</trkpt>
<trkpt lat="31.1491300" lon="35.3557300">
<ele>-324.307190</ele>
<time>2009-12-04T11:37:58.002Z</time>
</trkpt>
<trkpt lat="31.1490600" lon="35.3560700">
<ele>-321.899261</ele>
<time>2009-12-04T11:38:14.997Z</time>
</trkpt>
<trkpt lat="31.1489400" lon="35.3563300">
<ele>-319.491333</ele>
<time>2009-12-04T11:38:32.001Z</time>
</trkpt>
<trkpt lat="31.1487900" lon="35.3566100">
<ele>-317.083466</ele>
<time>2009-12-04T11:38:49.998Z</time>
</trkpt>
<trkpt lat="31.1486200" lon="35.3570300">
<ele>-316.626251</ele>
<time>2009-12-04T11:39:08.004Z</time>
</trkpt>
<trkpt lat="31.1485200" lon="35.3575400">
<ele>-316.626251</ele>
<time>2009-12-04T11:39:20.998Z</time>
</trkpt>
<trkpt lat="31.1486300" lon="35.3582800">
<ele>-317.083466</ele>
<time>2009-12-04T11:39:36.999Z</time>
</trkpt>
<trkpt lat="31.1486800" lon="35.3587800">
<ele>-314.705994</ele>
<time>2009-12-04T11:39:51.998Z</time>
</trkpt>
<trkpt lat="31.1488000" lon="35.3592800">
<ele>-313.730652</ele>
<time>2009-12-04T11:40:10.004Z</time>
</trkpt>
<trkpt lat="31.1490800" lon="35.3598600">
<ele>-315.650879</ele>
<time>2009-12-04T11:40:25.003Z</time>
</trkpt>
<trkpt lat="31.1492400" lon="35.3602300">
<ele>-318.546478</ele>
<time>2009-12-04T11:40:37.004Z</time>
</trkpt>
<trkpt lat="31.1494000" lon="35.3606600">
<ele>-321.899261</ele>
<time>2009-12-04T11:40:45.998Z</time>
</trkpt>
<trkpt lat="31.1495800" lon="35.3610000">
<ele>-324.794861</ele>
<time>2009-12-04T11:40:52.003Z</time>
</trkpt>
<trkpt lat="31.1497600" lon="35.3611400">
<ele>-327.660004</ele>
<time>2009-12-04T11:40:56.004Z</time>
</trkpt>
<trkpt lat="31.1499300" lon="35.3612000">
<ele>-331.988159</ele>
<time>2009-12-04T11:40:59.002Z</time>
</trkpt>
<trkpt lat="31.1500400" lon="35.3612400">
<ele>-333.451202</ele>
<time>2009-12-04T11:41:00.997Z</time>
</trkpt>
<trkpt lat="31.1502400" lon="35.3614300">
<ele>-337.779358</ele>
<time>2009-12-04T11:41:06.000Z</time>
</trkpt>
<trkpt lat="31.1502700" lon="35.3617900">
<ele>-341.619843</ele>
<time>2009-12-04T11:41:15.996Z</time>
</trkpt>
<trkpt lat="31.1503600" lon="35.3621900">
<ele>-344.027740</ele>
<time>2009-12-04T11:44:55.997Z</time>
</trkpt>
<trkpt lat="31.1503900" lon="35.3623200">
<ele>-344.027740</ele>
<time>2009-12-04T11:44:58.001Z</time>
</trkpt>
<trkpt lat="31.1506700" lon="35.3627400">
<ele>-347.868256</ele>
<time>2009-12-04T11:45:05.000Z</time>
</trkpt>
<trkpt lat="31.1509100" lon="35.3628500">
<ele>-351.708740</ele>
<time>2009-12-04T11:45:07.998Z</time>
</trkpt>
<trkpt lat="31.1511000" lon="35.3628800">
<ele>-353.141266</ele>
<time>2009-12-04T11:45:10.002Z</time>
</trkpt>
<trkpt lat="31.1513100" lon="35.3628900">
<ele>-355.549194</ele>
<time>2009-12-04T11:45:11.998Z</time>
</trkpt>
<trkpt lat="31.1516700" lon="35.3630200">
<ele>-360.365051</ele>
<time>2009-12-04T11:45:15.998Z</time>
</trkpt>
<trkpt lat="31.1519600" lon="35.3633000">
<ele>-363.717865</ele>
<time>2009-12-04T11:45:19.999Z</time>
</trkpt>
<trkpt lat="31.1521000" lon="35.3636000">
<ele>-366.613464</ele>
<time>2009-12-04T11:45:22.997Z</time>
</trkpt>
<trkpt lat="31.1521700" lon="35.3637800">
<ele>-367.101135</ele>
<time>2009-12-04T11:45:25.001Z</time>
</trkpt>
<trkpt lat="31.1521800" lon="35.3643000">
<ele>-369.478546</ele>
<time>2009-12-04T11:45:32.000Z</time>
</trkpt>
<trkpt lat="31.1522700" lon="35.3644000">
<ele>-369.966248</ele>
<time>2009-12-04T11:45:34.004Z</time>
</trkpt>
<trkpt lat="31.1525700" lon="35.3648300">
<ele>-373.349518</ele>
<time>2009-12-04T11:45:41.003Z</time>
</trkpt>
<trkpt lat="31.1526600" lon="35.3650800">
<ele>-375.269745</ele>
<time>2009-12-04T11:45:44.001Z</time>
</trkpt>
<trkpt lat="31.1527600" lon="35.3653400">
<ele>-376.702332</ele>
<time>2009-12-04T11:45:46.999Z</time>
</trkpt>
<trkpt lat="31.1529700" lon="35.3659200">
<ele>-378.622559</ele>
<time>2009-12-04T11:45:54.999Z</time>
</trkpt>
<trkpt lat="31.1530300" lon="35.3660600">
<ele>-379.597931</ele>
<time>2009-12-04T11:45:57.997Z</time>
</trkpt>
<trkpt lat="31.1529300" lon="35.3662100">
<ele>-380.542786</ele>
<time>2009-12-04T11:46:03.000Z</time>
</trkpt>
<trkpt lat="31.1522800" lon="35.3665500">
<ele>-381.030487</ele>
<time>2009-12-04T11:46:20.997Z</time>
</trkpt>
<trkpt lat="31.1518000" lon="35.3667800">
<ele>-380.542786</ele>
<time>2009-12-04T11:46:31.996Z</time>
</trkpt>
<trkpt lat="31.1515400" lon="35.3667000">
<ele>-380.542786</ele>
<time>2009-12-04T11:46:40.999Z</time>
</trkpt>
<trkpt lat="31.1514400" lon="35.3667900">
<ele>-379.597931</ele>
<time>2009-12-04T11:47:36.001Z</time>
</trkpt>
<trkpt lat="31.1513600" lon="35.3668200">
<ele>-380.055115</ele>
<time>2009-12-04T11:47:52.002Z</time>
</trkpt>
<trkpt lat="31.1510900" lon="35.3669400">
<ele>-379.597931</ele>
<time>2009-12-04T11:48:04.003Z</time>
</trkpt>
<trkpt lat="31.1506600" lon="35.3671000">
<ele>-379.597931</ele>
<time>2009-12-04T11:48:19.996Z</time>
</trkpt>
<trkpt lat="31.1504500" lon="35.3673000">
<ele>-380.055115</ele>
<time>2009-12-04T11:48:31.003Z</time>
</trkpt>
<trkpt lat="31.1504200" lon="35.3675700">
<ele>-380.542786</ele>
<time>2009-12-04T11:48:41.000Z</time>
</trkpt>
<trkpt lat="31.1503100" lon="35.3675500">
<ele>-380.542786</ele>
<time>2009-12-04T11:48:47.998Z</time>
</trkpt>
<trkpt lat="31.1500900" lon="35.3672900">
<ele>-381.030487</ele>
<time>2009-12-04T11:49:02.004Z</time>
</trkpt>
<trkpt lat="31.1498700" lon="35.3674400">
<ele>-381.030487</ele>
<time>2009-12-04T11:49:13.002Z</time>
</trkpt>
<trkpt lat="31.1495400" lon="35.3676600">
<ele>-382.463043</ele>
<time>2009-12-04T11:49:25.997Z</time>
</trkpt>
<trkpt lat="31.1490100" lon="35.3679400">
<ele>-381.975342</ele>
<time>2009-12-04T11:49:41.998Z</time>
</trkpt>
<trkpt lat="31.1485000" lon="35.3682300">
<ele>-381.030487</ele>
<time>2009-12-04T11:49:57.999Z</time>
</trkpt>
<trkpt lat="31.1480500" lon="35.3686500">
<ele>-380.055115</ele>
<time>2009-12-04T11:50:11.996Z</time>
</trkpt>
<trkpt lat="31.1478300" lon="35.3689800">
<ele>-380.055115</ele>
<time>2009-12-04T11:50:19.997Z</time>
</trkpt>
<trkpt lat="31.1478400" lon="35.3693200">
<ele>-380.542786</ele>
<time>2009-12-04T11:50:27.997Z</time>
</trkpt>
<trkpt lat="31.1478800" lon="35.3693700">
<ele>-380.542786</ele>
<time>2009-12-04T11:50:30.002Z</time>
</trkpt>
<trkpt lat="31.1480000" lon="35.3693600">
<ele>-380.055115</ele>
<time>2009-12-04T11:50:34.002Z</time>
</trkpt>
<trkpt lat="31.1480900" lon="35.3693900">
<ele>-379.597931</ele>
<time>2009-12-04T11:50:42.996Z</time>
</trkpt>
<trkpt lat="31.1481800" lon="35.3696000">
<ele>-381.030487</ele>
<time>2009-12-04T11:51:28.002Z</time>
</trkpt>
<trkpt lat="31.1484900" lon="35.3698000">
<ele>-381.518158</ele>
<time>2009-12-04T11:51:40.003Z</time>
</trkpt>
<trkpt lat="31.1485100" lon="35.3698300">
<ele>-381.975342</ele>
<time>2009-12-04T11:51:40.997Z</time>
</trkpt>
<trkpt lat="31.1484700" lon="35.3699300">
<ele>-381.518158</ele>
<time>2009-12-04T11:51:48.997Z</time>
</trkpt>
<trkpt lat="31.1482900" lon="35.3698700">
<ele>-381.030487</ele>
<time>2009-12-04T11:53:09.004Z</time>
</trkpt>
<trkpt lat="31.1479800" lon="35.3697300">
<ele>-380.055115</ele>
<time>2009-12-04T11:53:25.999Z</time>
</trkpt>
<trkpt lat="31.1479400" lon="35.3696200">
<ele>-381.518158</ele>
<time>2009-12-04T11:55:04.996Z</time>
</trkpt>
</trkseg>
</trk>
</gpx>
